Portsmouth, Virginia - KPWR: 24-hour Summary Portsmouth Weather Records Service - Portsmouth, Virginia



LOCAL CLIMATOLOGICAL DATA: This Month's Data
[updated each morning between 7AM and 9AM]
Station: Portsmouth, Virginia - KPWR Latitude: 36° 48' 04" N Longitude: 76° 19' 37" W Elevation (ground): 13 ft. Time Zone: Eastern

BE SURE TO RELOAD/REFRESH THIS SCREEN FOR DAILY UPDATES BY RIGHT-CLICKING THE BACKGROUND The data in this frame and listed below are final adjusted site data for the time period.

-------------------------------------------------------------------------------------------------------------------------------------------
SUNDAY			Hi	Low	Out	Dew	Wind	Wind	Wind	Hi	Hi	Wind	Heat	THW			Rain	Heat	Cool	In 	In	In 	In 	Wind	Wind	ISS 	Arc.
Date		Time	Out	Temp	Temp	Hum	Pt.	Speed	Dir	Run	Speed	Dir	Chill	Index	Index	Bar  	Rain	Rate	D-D 	D-D 	Temp	Hum	Dew	Heat	Samp	Tx 	Recept	Int.
04/01/18	1:00 a	42.1	43.0	42.1	86	38.2	0.0	---	0.00	0.0	---	42.1	41.9	41.9	30.186	0.00	0.00	0.954	0.000	81.6	29	46.3	79.5	1403	1	100.0	60
04/01/18	2:00 a	41.3	42.1	41.3	88	38.0	0.0	---	0.00	0.0	---	41.3	41.2	41.2	30.159	0.00	0.00	0.988	0.000	81.2	29	45.9	79.1	1405	1	100.0	60
04/01/18	3:00 a	41.2	41.3	41.2	86	37.3	0.0	---	0.00	0.0	---	41.2	41.0	41.0	30.135	0.00	0.00	0.992	0.000	80.6	29	45.4	78.5	1405	1	100.0	60
04/01/18	4:00 a	41.5	41.5	41.1	87	37.9	0.0	---	0.00	0.0	---	41.5	41.4	41.4	30.121	0.00	0.00	0.979	0.000	79.6	29	44.5	77.6	1405	1	100.0	60
04/01/18	5:00 a	41.8	41.8	41.5	89	38.8	0.0	---	0.00	0.0	---	41.8	41.7	41.7	30.113	0.00	0.00	0.967	0.000	79.4	28	43.4	77.3	1405	1	100.0	60
04/01/18	6:00 a	42.1	42.2	41.8	91	39.7	0.0	---	0.00	0.0	---	42.1	42.1	42.1	30.109	0.00	0.00	0.954	0.000	79.3	28	43.4	77.2	1405	1	100.0	60
04/01/18	7:00 a	42.2	42.2	42.1	91	39.8	0.0	---	0.00	0.0	---	42.2	42.2	42.2	30.119	0.00	0.00	0.950	0.000	79.5	28	43.5	77.4	1405	1	100.0	60
04/01/18	8:00 a	44.3	44.3	42.2	95	43.0	0.0	---	0.00	0.0	---	44.3	44.5	44.5	30.119	0.00	0.00	0.863	0.000	79.8	29	44.7	77.7	1404	1	100.0	60
04/01/18	9:00 a	50.6	50.6	44.3	92	48.4	0.0	SW	0.00	10.0	S	50.6	50.9	50.9	30.112	0.00	0.00	0.600	0.000	81.4	28	45.2	79.2	1405	1	100.0	60
04/01/18	10:00 a	58.1	58.1	50.6	79	51.6	0.0	SSW	0.00	5.0	S	58.1	57.8	57.8	30.108	0.00	0.00	0.288	0.000	82.8	28	46.4	80.6	1406	1	100.0	60
04/01/18	11:00 a	62.3	62.3	58.1	67	51.2	0.0	SW	0.00	16.0	SW	62.3	61.7	61.7	30.100	0.00	0.00	0.113	0.000	83.4	28	46.9	81.2	1404	1	100.0	60
04/01/18	12:00 p	66.5	66.5	62.3	57	50.8	0.0	W	0.00	12.0	W	66.5	65.7	65.7	30.082	0.00	0.00	0.000	0.063	83.5	28	47.0	81.4	1405	1	100.0	60
04/01/18	1:00 p	69.2	69.2	66.5	55	52.3	0.0	S	0.00	13.0	S	69.2	68.1	68.1	30.062	0.00	0.00	0.000	0.175	85.2	28	48.4	83.1	1405	1	100.0	60
04/01/18	2:00 p	72.6	72.6	69.2	44	49.4	0.0	SSW	0.00	18.0	WSW	72.6	71.4	71.4	30.039	0.00	0.00	0.000	0.317	87.0	28	50.0	84.8	1405	1	100.0	60
04/01/18	3:00 p	73.6	73.6	72.6	40	47.8	0.0	W	0.00	15.0	S	73.6	72.5	72.5	30.020	0.00	0.00	0.000	0.358	87.9	29	51.7	85.5	1405	1	100.0	60
04/01/18	4:00 p	73.9	73.9	73.4	38	46.7	0.0	WSW	0.00	16.0	WSW	73.9	72.8	72.8	30.003	0.00	0.00	0.000	0.371	90.5	29	53.9	89.3	1405	1	100.0	60
04/01/18	5:00 p	73.8	74.0	73.8	39	47.3	0.0	W	0.00	13.0	W	73.8	72.7	72.7	30.000	0.00	0.00	0.000	0.367	90.4	30	54.7	89.5	1405	1	100.0	60
04/01/18	6:00 p	72.3	73.8	72.3	40	46.6	0.0	WSW	0.00	7.0	W	72.3	70.6	70.6	29.997	0.00	0.00	0.000	0.304	90.4	30	54.7	89.5	1405	1	100.0	60
04/01/18	7:00 p	70.4	72.3	70.4	45	48.0	0.0	---	0.00	0.0	---	70.4	68.3	68.3	30.004	0.00	0.00	0.000	0.225	89.4	30	53.9	87.8	1405	1	100.0	60
04/01/18	8:00 p	65.3	70.4	65.3	49	45.6	0.0	NE	0.00	5.0	ENE	65.3	63.5	63.5	30.021	0.00	0.00	0.000	0.013	88.3	31	53.8	86.3	1405	1	100.0	60
04/01/18	9:00 p	62.3	65.3	62.3	56	46.4	0.0	---	0.00	0.0	---	62.3	60.9	60.9	30.025	0.00	0.00	0.113	0.000	87.8	30	52.5	85.6	1405	1	100.0	60
04/01/18	10:00 p	60.4	62.3	60.4	58	45.5	0.0	---	0.00	0.0	---	60.4	59.0	59.0	30.023	0.00	0.00	0.192	0.000	86.6	31	52.4	85.0	1404	1	100.0	60
04/01/18	11:00 p	59.1	60.4	59.1	62	46.1	0.0	---	0.00	0.0	---	59.1	57.9	57.9	30.006	0.00	0.00	0.246	0.000	85.4	31	51.3	83.8	1405	1	100.0	60
04/02/18	12:00 a	57.7	59.1	57.7	66	46.4	0.0	---	0.00	0.0	---	57.7	56.7	56.7	29.988	0.00	0.00	0.304	0.000	84.5	31	50.5	83.0	1406	1	100.0	60

MONDAY			Hi	Low	Out	Dew	Wind	Wind	Wind	Hi	Hi	Wind	Heat	THW			Rain	Heat	Cool	In 	In	In 	In 	Wind	Wind	ISS 	Arc.
Date		Time	Out	Temp	Temp	Hum	Pt.	Speed	Dir	Run	Speed	Dir	Chill	Index	Index	Bar  	Rain	Rate	D-D 	D-D 	Temp	Hum	Dew	Heat	Samp	Tx 	Recept	Int.
04/02/18	1:00 a	56.4	57.7	56.4	76	48.9	0.0	---	0.00	0.0	---	56.4	55.9	55.9	29.969	0.00	0.00	0.358	0.000	83.6	31	49.8	82.0	1403	1	100.0	60
04/02/18	2:00 a	56.6	56.6	56.2	85	52.1	0.0	N	0.00	4.0	N	56.6	56.5	56.5	29.950	0.00	0.00	0.350	0.000	83.0	31	49.2	81.2	1405	1	100.0	60
04/02/18	3:00 a	57.1	57.1	56.6	86	53.0	0.0	SE	0.00	4.0	S	57.1	57.0	57.0	29.916	0.00	0.00	0.329	0.000	82.1	31	48.5	80.3	1405	1	100.0	60
04/02/18	4:00 a	57.1	57.2	57.1	89	53.9	0.0	---	0.00	0.0	---	57.1	57.2	57.2	29.897	0.00	0.00	0.329	0.000	82.4	31	48.7	80.6	1405	1	100.0	60
04/02/18	5:00 a	58.2	58.2	57.1	90	55.3	0.0	WSW	0.00	6.0	WSW	58.2	58.3	58.3	29.896	0.00	0.00	0.283	0.000	81.3	31	47.8	79.4	1405	1	100.0	60
04/02/18	6:00 a	59.8	59.8	58.2	88	56.2	0.0	SSE	0.00	4.0	W	59.8	60.0	60.0	29.888	0.00	0.00	0.217	0.000	81.9	31	48.3	80.1	1405	1	100.0	60
04/02/18	7:00 a	60.7	60.8	59.8	88	57.1	0.0	SSW	0.00	14.0	SW	60.7	61.0	61.0	29.897	0.00	0.00	0.179	0.000	81.3	32	48.6	79.5	1405	1	100.0	60
04/02/18	8:00 a	61.2	61.2	60.7	87	57.3	0.0	SW	0.00	13.0	SW	61.2	61.5	61.5	29.922	0.00	0.00	0.158	0.000	83.0	31	49.2	81.2	1405	1	100.0	60
04/02/18	9:00 a	63.6	63.6	61.2	82	58.0	0.0	W	0.00	14.0	W	63.6	64.1	64.1	29.942	0.00	0.00	0.058	0.000	82.4	32	49.6	80.7	1405	1	100.0	60
04/02/18	10:00 a	65.2	65.2	63.6	77	57.8	0.0	W	0.00	16.0	SW	65.2	65.7	65.7	29.966	0.00	0.00	0.000	0.008	78.8	35	48.8	77.6	1404	1	100.0	60
04/02/18	11:00 a	60.3	65.3	60.3	78	53.4	0.0	ENE	0.00	17.0	NNW	60.3	60.1	60.1	29.986	0.00	0.00	0.196	0.000	77.8	36	48.7	76.6	1405	1	100.0	60
04/02/18	12:00 p	56.9	60.3	56.9	77	49.8	0.0	NE	0.00	16.0	NW	56.9	56.5	56.5	30.002	0.00	0.00	0.337	0.000	79.3	36	50.0	78.1	1406	1	100.0	60
04/02/18	1:00 p	54.1	57.0	54.0	77	47.0	0.0	NE	0.00	20.0	NW	54.1	53.7	53.7	30.026	0.00	0.00	0.454	0.000	80.1	36	50.7	78.7	1404	1	100.0	60
04/02/18	2:00 p	53.1	54.4	52.7	76	45.7	5.0	NE	5.00	26.0	NE	51.8	52.6	51.3	30.037	0.00	0.00	0.496	0.000	80.7	35	50.5	79.2	1405	1	100.0	60
04/02/18	3:00 p	52.7	53.5	52.5	76	45.3	6.0	NE	6.00	24.0	ENE	50.8	52.3	50.4	30.054	0.00	0.00	0.512	0.000	81.9	34	50.8	80.5	1405	1	100.0	60
04/02/18	4:00 p	52.0	52.8	51.8	76	44.7	5.0	NE	5.00	26.0	ENE	50.6	51.6	50.2	30.053	0.00	0.00	0.542	0.000	83.6	33	51.5	82.3	1405	1	100.0	60
04/02/18	5:00 p	49.8	52.0	49.8	81	44.2	5.0	NE	5.00	25.0	NE	48.0	49.8	48.0	30.060	0.00	0.00	0.633	0.000	83.5	31	49.7	81.8	1405	1	100.0	60
04/02/18	6:00 p	46.8	49.8	46.8	86	42.8	6.0	ENE	6.00	25.0	ENE	43.9	46.8	43.9	30.068	0.00	0.00	0.758	0.000	82.3	31	48.6	80.5	1405	1	100.0	60
04/02/18	7:00 p	46.2	46.8	46.2	85	41.9	4.0	NE	4.00	22.0	ENE	44.4	46.2	44.4	30.097	0.00	0.00	0.783	0.000	81.9	30	47.4	80.0	1405	1	100.0	60
04/02/18	8:00 p	46.0	46.2	45.8	84	41.4	0.0	ENE	0.00	22.0	NE	46.0	46.0	46.0	30.120	0.00	0.00	0.792	0.000	84.6	28	47.9	82.5	1405	1	100.0	60
04/02/18	9:00 p	44.6	46.0	44.6	85	40.4	0.0	ENE	0.00	21.0	ENE	44.6	44.5	44.5	30.135	0.00	0.00	0.850	0.000	83.8	28	47.2	81.7	1405	1	100.0	60
04/02/18	10:00 p	44.2	44.6	44.2	85	40.0	0.0	ENE	0.00	17.0	NE	44.2	44.1	44.1	30.165	0.00	0.00	0.867	0.000	83.2	28	46.7	81.0	1404	1	100.0	60
04/02/18	11:00 p	44.2	44.4	44.2	87	40.6	0.0	NE	0.00	4.0	NE	44.2	44.2	44.2	30.142	0.00	0.00	0.867	0.000	82.6	28	46.2	80.4	1405	1	100.0	60
04/03/18	12:00 a	44.4	44.4	44.2	87	40.8	0.0	NNE	0.00	4.0	NNE	44.4	44.4	44.4	30.158	0.00	0.00	0.858	0.000	82.1	28	45.8	79.9	1405	1	100.0	60

TUESDAY			Hi	Low	Out	Dew	Wind	Wind	Wind	Hi	Hi	Wind	Heat	THW			Rain	Heat	Cool	In 	In	In 	In 	Wind	Wind	ISS 	Arc.
Date		Time	Out	Temp	Temp	Hum	Pt.	Speed	Dir	Run	Speed	Dir	Chill	Index	Index	Bar  	Rain	Rate	D-D 	D-D 	Temp	Hum	Dew	Heat	Samp	Tx 	Recept	Int.
04/03/18	1:00 a	44.8	44.8	44.4	88	41.5	0.0	ENE	0.00	4.0	ENE	44.8	44.8	44.8	30.159	0.00	0.00	0.842	0.000	80.6	29	45.4	78.5	1404	1	100.0	60
04/03/18	2:00 a	45.0	45.0	44.8	90	42.2	0.0	ENE	0.00	4.0	ENE	45.0	45.1	45.1	30.143	0.00	0.00	0.833	0.000	80.6	29	45.4	78.5	1405	1	100.0	60
04/03/18	3:00 a	45.2	45.2	44.9	91	42.7	0.0	---	0.00	0.0	---	45.2	45.3	45.3	30.120	0.00	0.00	0.825	0.000	80.6	29	45.4	78.5	1405	1	100.0	60
04/03/18	4:00 a	45.3	45.4	45.2	91	42.8	0.0	---	0.00	0.0	---	45.3	45.4	45.4	30.106	0.00	0.00	0.821	0.000	80.5	29	45.3	78.4	1405	1	100.0	60
04/03/18	5:00 a	46.0	46.0	45.3	91	43.5	0.0	ENE	0.00	4.0	ENE	46.0	46.1	46.1	30.105	0.00	0.00	0.792	0.000	80.3	29	45.1	78.2	1405	1	100.0	60
04/03/18	6:00 a	46.3	46.3	45.9	92	44.1	0.0	---	0.00	0.0	---	46.3	46.5	46.5	30.101	0.00	0.00	0.779	0.000	80.3	29	45.1	78.2	1405	1	100.0	60
04/03/18	7:00 a	46.6	46.6	46.3	92	44.4	0.0	---	0.00	0.0	---	46.6	46.8	46.8	30.093	0.00	0.00	0.767	0.000	81.0	29	45.7	78.9	1405	1	100.0	60
04/03/18	8:00 a	47.8	47.8	46.6	91	45.3	0.0	---	0.00	0.0	---	47.8	48.0	48.0	30.093	0.00	0.00	0.717	0.000	82.0	28	45.7	79.9	1404	1	100.0	60
04/03/18	9:00 a	49.5	49.5	47.8	89	46.4	0.0	---	0.00	0.0	---	49.5	49.8	49.8	30.089	0.00	0.00	0.646	0.000	82.0	29	46.6	80.0	1405	1	100.0	60
04/03/18	10:00 a	52.4	52.4	49.5	87	48.6	0.0	---	0.00	0.0	---	52.4	52.4	52.4	30.076	0.00	0.00	0.525	0.000	81.7	30	47.2	79.8	1406	1	100.0	60
04/03/18	11:00 a	55.4	55.4	52.4	84	50.6	0.0	ENE	0.00	4.0	S	55.4	55.3	55.3	30.069	0.00	0.00	0.400	0.000	79.2	32	46.8	77.6	1404	1	100.0	60
04/03/18	12:00 p	60.1	60.1	55.4	81	54.2	0.0	SE	0.00	4.0	SE	60.1	60.0	60.0	30.039	0.00	0.00	0.204	0.000	78.1	34	47.4	76.7	1405	1	100.0	60
04/03/18	1:00 p	65.9	65.9	60.1	78	58.8	0.0	S	0.00	4.0	S	65.9	66.6	66.6	30.013	0.00	0.00	0.000	0.038	77.8	35	47.9	76.6	1405	1	100.0	60
04/03/18	2:00 p	69.9	69.9	66.0	74	61.2	0.0	SW	0.00	6.0	SW	69.9	70.4	70.4	29.990	0.00	0.00	0.000	0.204	79.3	35	49.3	78.0	1405	1	100.0	60
04/03/18	3:00 p	73.3	73.3	69.9	68	62.1	0.0	SSW	0.00	6.0	WNW	73.3	74.4	74.4	29.950	0.00	0.00	0.000	0.346	81.0	35	50.8	79.5	1405	1	100.0	60
04/03/18	4:00 p	76.3	76.3	73.3	66	64.1	0.0	S	0.00	11.0	SSE	76.3	77.7	77.7	29.925	0.00	0.00	0.000	0.471	83.6	35	53.1	82.7	1405	1	100.0	60
04/03/18	5:00 p	77.9	78.2	76.4	59	62.4	0.0	SSW	0.00	11.0	SW	77.9	78.7	78.7	29.920	0.00	0.00	0.000	0.538	85.8	35	55.0	85.1	1405	1	100.0	60
04/03/18	6:00 p	77.0	77.9	77.0	59	61.6	0.0	SW	0.00	6.0	SSW	77.0	77.7	77.7	29.918	0.00	0.00	0.000	0.500	86.8	36	56.6	86.2	1405	1	100.0	60
04/03/18	7:00 p	73.4	77.0	73.4	62	59.6	0.0	WSW	0.00	6.0	SSW	73.4	74.1	74.1	29.921	0.00	0.00	0.000	0.350	86.4	36	56.3	85.9	1405	1	100.0	60
04/03/18	8:00 p	67.9	73.4	67.9	72	58.5	0.0	---	0.00	0.0	---	67.9	68.6	68.6	29.912	0.00	0.00	0.000	0.121	85.6	36	55.6	85.0	1405	1	100.0	60
04/03/18	9:00 p	64.8	67.9	64.8	76	57.1	0.0	---	0.00	0.0	---	64.8	65.1	65.1	29.896	0.00	0.00	0.008	0.000	84.6	36	54.7	84.0	1405	1	100.0	60
04/03/18	10:00 p	62.6	64.8	62.6	81	56.7	0.0	---	0.00	0.0	---	62.6	62.9	62.9	29.883	0.00	0.00	0.100	0.000	83.4	36	53.6	82.6	1404	1	100.0	60
04/03/18	11:00 p	63.8	63.8	62.4	94	62.0	0.0	---	0.00	0.0	---	63.8	64.7	64.7	29.870	0.00	0.00	0.050	0.000	82.3	36	52.7	81.2	1405	1	100.0	60
04/04/18	12:00 a	67.3	67.3	63.8	92	64.9	0.0	S	0.00	6.0	S	67.3	68.9	68.9	29.857	0.00	0.00	0.000	0.096	81.2	37	52.4	79.9	1405	1	100.0	60

WEDNEDAY		Temp	Hi	Low	Out	Dew	Wind	Wind	Wind	Hi	Hi	Wind	Heat	THW			Rain	Heat	Cool	In 	In	In 	In 	Wind	Wind	ISS 	Arc.
Date		Time	Out	Temp	Temp	Hum	Pt.	Speed	Dir	Run	Speed	Dir	Chill	Index	Index	Bar  	Rain	Rate	D-D 	D-D 	Temp	Hum	Dew	Heat	Samp	Tx 	Recept	Int.
04/04/18	1:00 a	67.8	67.9	67.4	91	65.1	0.0	SSW	0.00	11.0	NE	67.8	69.5	69.5	29.828	0.00	0.00	0.000	0.117	80.7	37	52.0	79.4	1404	1	100.0	60
04/04/18	2:00 a	67.3	67.8	67.3	93	65.2	0.0	SE	0.00	11.0	SSW	67.3	68.9	68.9	29.815	0.00	0.00	0.000	0.096	80.1	38	52.2	78.9	1405	1	100.0	60
04/04/18	3:00 a	67.4	67.5	67.3	92	65.0	0.0	SW	0.00	20.0	SSW	67.4	69.0	69.0	29.795	0.00	0.00	0.000	0.100	79.6	38	51.8	78.5	1405	1	100.0	60
04/04/18	4:00 a	67.1	67.5	67.1	92	64.7	0.0	SSW	0.00	14.0	SW	67.1	68.7	68.7	29.781	0.00	0.00	0.000	0.087	79.3	38	51.5	78.3	1405	1	100.0	60
04/04/18	5:00 a	66.8	67.1	66.8	93	64.7	0.0	SW	0.00	11.0	SW	66.8	68.3	68.3	29.764	0.00	0.00	0.000	0.075	79.0	38	51.2	78.0	1405	1	100.0	60
04/04/18	6:00 a	66.8	66.8	66.7	93	64.7	0.0	S	0.00	15.0	S	66.8	68.3	68.3	29.748	0.00	0.00	0.000	0.075	80.4	38	52.5	79.2	1405	1	100.0	60
04/04/18	7:00 a	67.1	67.1	66.8	92	64.7	0.0	SW	0.00	14.0	SW	67.1	68.7	68.7	29.739	0.00	0.00	0.000	0.087	83.2	34	51.9	81.9	1405	1	100.0	60
04/04/18	8:00 a	68.4	68.4	67.1	90	65.4	0.0	S	0.00	7.0	SW	68.4	70.2	70.2	29.722	0.00	0.00	0.000	0.142	83.4	34	52.1	82.2	1405	1	100.0	60
04/04/18	9:00 a	71.2	71.2	68.4	86	66.8	0.0	SW	0.00	16.0	S	71.2	73.1	73.1	29.707	0.00	0.00	0.000	0.258	84.4	34	53.0	83.5	1405	1	100.0	60
04/04/18	10:00 a	73.0	73.0	71.1	82	67.2	0.0	SSW	0.00	19.0	SW	73.0	74.9	74.9	29.676	0.00	0.00	0.000	0.333	85.3	34	53.8	84.3	1404	1	100.0	60
04/04/18	11:00 a	74.6	74.8	73.0	79	67.7	0.0	SSW	0.00	24.0	WSW	74.6	76.8	76.8	29.650	0.00	0.00	0.000	0.400	84.4	36	54.5	83.9	1406	1	100.0	60
04/04/18	12:00 p	76.9	76.9	74.6	74	68.0	0.0	SW	0.00	27.0	SW	76.9	79.3	79.3	29.619	0.00	0.00	0.000	0.496	82.1	40	55.4	81.4	1405	1	100.0	60
04/04/18	1:00 p	76.6	78.6	76.6	80	70.0	0.0	SW	0.00	23.0	S	76.6	79.6	79.6	29.613	0.00	0.00	0.000	0.483	83.0	40	56.2	82.7	1405	1	100.0	60
04/04/18	2:00 p	79.6	79.6	76.1	68	68.1	0.0	SSW	0.00	23.0	S	79.6	81.9	81.9	29.585	0.00	0.00	0.000	0.608	83.8	40	56.9	84.0	1404	1	100.0	60
04/04/18	3:00 p	81.0	81.0	79.3	56	63.8	4.0	SW	4.00	27.0	SSE	81.0	82.1	82.1	29.568	0.00	0.00	0.000	0.667	85.0	41	58.7	85.3	1405	1	100.0	60
04/04/18	4:00 p	73.8	81.1	73.8	76	65.8	4.0	SW	4.00	24.0	S	73.8	75.6	75.6	29.572	0.02	0.19	0.000	0.367	85.3	41	58.9	85.6	1405	1	100.0	60
04/04/18	5:00 p	70.8	74.2	70.8	43	47.2	6.0	WNW	6.00	31.0	WNW	70.8	68.6	68.6	29.664	0.00	0.00	0.000	0.242	85.5	41	59.1	85.8	1405	1	100.0	60
04/04/18	6:00 p	67.9	70.8	67.9	31	36.1	5.0	WNW	5.00	26.0	WSW	67.9	64.4	64.4	29.698	0.00	0.00	0.000	0.121	84.7	40	57.7	84.9	1405	1	100.0	60
04/04/18	7:00 p	65.4	67.9	65.4	29	32.3	4.0	WNW	4.00	32.0	NNW	65.4	61.5	61.5	29.774	0.00	0.00	0.000	0.017	83.7	39	56.1	83.6	1405	1	100.0	60
04/04/18	8:00 p	62.7	65.4	62.7	29	30.0	4.0	WNW	4.00	30.0	W	62.7	58.9	58.9	29.825	0.00	0.00	0.096	0.000	83.2	38	55.0	82.7	1405	1	100.0	60
04/04/18	9:00 p	60.4	62.7	60.4	31	29.6	5.0	NW	5.00	29.0	NNW	60.4	56.9	56.9	29.882	0.00	0.00	0.192	0.000	81.7	38	53.6	80.7	1405	1	100.0	60
04/04/18	10:00 p	57.7	60.4	57.7	34	29.5	5.0	NW	5.00	23.0	NW	57.2	54.7	54.2	29.937	0.00	0.00	0.304	0.000	80.4	37	51.7	79.1	1405	1	100.0	60
04/04/18	11:00 p	54.4	57.7	54.4	36	28.0	5.0	NW	5.00	25.0	NNW	53.4	51.9	50.9	29.974	0.00	0.00	0.442	0.000	79.1	37	50.6	78.0	1405	1	100.0	60
04/05/18	12:00 a	51.8	54.4	51.8	39	27.6	4.0	NW	4.00	19.0	NW	51.0	49.9	49.1	30.002	0.00	0.00	0.550	0.000	81.2	34	50.2	79.6	1404	1	100.0	60

THURSDAY		Temp	Hi	Low	Out	Dew	Wind	Wind	Wind	Hi	Hi	Wind	Heat	THW			Rain	Heat	Cool	In 	In	In 	In 	Wind	Wind	ISS 	Arc.
Date		Time	Out	Temp	Temp	Hum	Pt.	Speed	Dir	Run	Speed	Dir	Chill	Index	Index	Bar  	Rain	Rate	D-D 	D-D 	Temp	Hum	Dew	Heat	Samp	Tx 	Recept	Int.
04/05/18	1:00 a	49.9	51.8	49.9	40	26.5	4.0	NW	4.00	24.0	NNW	48.8	48.4	47.3	30.031	0.00	0.00	0.629	0.000	81.9	31	48.3	80.1	1403	1	100.0	60
04/05/18	2:00 a	48.4	49.9	48.4	42	26.3	0.0	NW	0.00	20.0	WNW	48.4	47.0	47.0	30.043	0.00	0.00	0.692	0.000	81.6	30	47.2	79.7	1405	1	100.0	60
04/05/18	3:00 a	46.6	48.4	46.6	42	24.7	0.0	NNW	0.00	19.0	NNW	46.6	45.2	45.2	30.058	0.00	0.00	0.767	0.000	81.4	30	47.0	79.4	1405	1	100.0	60
04/05/18	4:00 a	45.4	46.6	45.4	44	24.7	0.0	NW	0.00	29.0	NNW	45.4	44.1	44.1	30.087	0.00	0.00	0.817	0.000	80.9	30	46.6	78.9	1405	1	100.0	60
04/05/18	5:00 a	43.9	45.4	43.9	49	26.0	0.0	NW	0.00	18.0	NW	43.9	42.8	42.8	30.110	0.00	0.00	0.879	0.000	80.5	29	45.3	78.4	1405	1	100.0	60
04/05/18	6:00 a	42.8	43.9	42.8	50	25.4	0.0	NW	0.00	13.0	NW	42.8	41.7	41.7	30.148	0.00	0.00	0.925	0.000	80.2	29	45.1	78.1	1405	1	100.0	60
04/05/18	7:00 a	41.9	42.8	41.9	54	26.4	0.0	NNW	0.00	14.0	NNW	41.9	40.9	40.9	30.163	0.00	0.00	0.962	0.000	82.2	28	45.8	80.0	1405	1	100.0	60
04/05/18	8:00 a	42.8	42.9	41.8	53	26.8	0.0	WNW	0.00	5.0	NW	42.8	41.8	41.8	30.190	0.00	0.00	0.925	0.000	83.5	27	46.0	81.2	1405	1	100.0	60
04/05/18	9:00 a	44.3	44.3	42.9	51	27.3	0.0	WNW	0.00	14.0	WNW	44.3	43.2	43.2	30.191	0.00	0.00	0.863	0.000	84.5	26	45.8	82.1	1405	1	100.0	60
04/05/18	10:00 a	45.9	46.0	44.3	52	29.2	0.0	WNW	0.00	13.0	WNW	45.9	44.8	44.8	30.202	0.00	0.00	0.796	0.000	83.9	29	48.2	82.0	1404	1	100.0	60
04/05/18	11:00 a	47.6	47.6	46.0	50	29.9	0.0	ENE	0.00	6.0	NE	47.6	46.4	46.4	30.203	0.00	0.00	0.725	0.000	79.5	31	46.2	77.7	1405	1	100.0	60
04/05/18	12:00 p	49.1	49.1	47.6	46	29.2	0.0	NE	0.00	5.0	NW	49.1	47.8	47.8	30.199	0.00	0.00	0.663	0.000	79.8	31	46.5	77.9	1405	1	100.0	60
04/05/18	1:00 p	51.3	51.3	49.1	46	31.2	0.0	NW	0.00	12.0	NW	51.3	49.8	49.8	30.191	0.00	0.00	0.571	0.000	81.3	31	47.8	79.4	1405	1	100.0	60
04/05/18	2:00 p	54.0	54.0	51.3	44	32.6	0.0	WSW	0.00	5.0	WNW	54.0	52.0	52.0	30.181	0.00	0.00	0.458	0.000	81.6	31	48.0	79.8	1405	1	100.0	60
04/05/18	3:00 p	56.6	56.6	54.0	37	30.6	0.0	W	0.00	5.0	WSW	56.6	53.9	53.9	30.155	0.00	0.00	0.350	0.000	82.3	32	49.5	80.6	1405	1	100.0	60
04/05/18	4:00 p	58.2	58.2	56.6	34	29.9	0.0	WSW	0.00	4.0	WSW	58.2	55.1	55.1	30.118	0.00	0.00	0.283	0.000	84.2	31	50.3	82.7	1405	1	100.0	60
04/05/18	5:00 p	59.6	59.6	58.2	33	30.4	0.0	WSW	0.00	16.0	WSW	59.6	56.4	56.4	30.121	0.00	0.00	0.225	0.000	85.1	31	51.1	83.5	1405	1	100.0	60
04/05/18	6:00 p	57.1	59.7	57.1	48	37.6	0.0	SW	0.00	12.0	W	57.1	55.1	55.1	30.129	0.00	0.00	0.329	0.000	85.7	31	51.6	84.2	1405	1	100.0	60
04/05/18	7:00 p	51.1	57.1	51.1	58	36.8	0.0	ESE	0.00	5.0	SE	51.1	50.1	50.1	30.131	0.00	0.00	0.579	0.000	85.2	30	50.3	83.4	1405	1	100.0	60
04/05/18	8:00 p	47.4	51.1	47.4	67	37.0	0.0	SSE	0.00	5.0	SE	47.4	46.8	46.8	30.127	0.00	0.00	0.733	0.000	83.4	30	48.7	81.5	1405	1	100.0	60
04/05/18	9:00 p	45.1	47.4	45.1	73	37.0	0.0	SSE	0.00	13.0	SE	45.1	44.7	44.7	30.144	0.00	0.00	0.829	0.000	81.9	31	48.3	80.1	1405	1	100.0	60
04/05/18	10:00 p	43.8	45.1	43.8	78	37.4	0.0	---	0.00	0.0	---	43.8	43.5	43.5	30.154	0.00	0.00	0.883	0.000	80.7	31	47.2	78.8	1405	1	100.0	60
04/05/18	11:00 p	43.4	43.8	43.4	83	38.6	0.0	SSE	0.00	5.0	SE	43.4	43.2	43.2	30.140	0.00	0.00	0.900	0.000	79.8	31	46.5	77.9	1404	1	100.0	60
04/06/18	12:00 a	42.7	43.4	42.7	84	38.2	0.0	---	0.00	0.0	---	42.7	42.5	42.5	30.142	0.00	0.00	0.929	0.000	78.8	31	45.6	77.1	1405	1	100.0	60

FRIDAY			Temp	Hi	Low	Out	Dew	Wind	Wind	Wind	Hi	Hi	Wind	Heat	THW			Rain	Heat	Cool	In 	In	In 	In 	Wind	Wind	ISS 	Arc.
Date		Time	Out	Temp	Temp	Hum	Pt.	Speed	Dir	Run	Speed	Dir	Chill	Index	Index	Bar  	Rain	Rate	D-D 	D-D 	Temp	Hum	Dew	Heat	Samp	Tx 	Recept	Int.
04/06/18	1:00 a	42.0	42.7	42.0	87	38.4	0.0	---	0.00	0.0	---	42.0	41.9	41.9	30.146	0.00	0.00	0.958	0.000	77.1	31	44.1	75.9	1403	1	100.0	60
04/06/18	2:00 a	41.8	42.0	41.8	89	38.8	0.0	---	0.00	0.0	---	41.8	41.7	41.7	30.141	0.00	0.00	0.967	0.000	76.4	31	43.5	75.1	1405	1	100.0	60
04/06/18	3:00 a	41.4	41.8	41.4	90	38.7	0.0	---	0.00	0.0	---	41.4	41.3	41.3	30.126	0.00	0.00	0.983	0.000	75.8	31	43.0	74.3	1405	1	100.0	60
04/06/18	4:00 a	41.5	41.5	41.3	92	39.3	0.0	---	0.00	0.0	---	41.5	41.5	41.5	30.115	0.00	0.00	0.979	0.000	75.4	31	42.7	73.9	1405	1	100.0	60
04/06/18	5:00 a	42.0	42.0	41.5	93	40.1	0.0	---	0.00	0.0	---	42.0	42.1	42.1	30.108	0.00	0.00	0.958	0.000	75.1	31	42.4	73.5	1405	1	100.0	60
04/06/18	6:00 a	42.4	42.4	42.0	93	40.5	0.0	---	0.00	0.0	---	42.4	42.5	42.5	30.097	0.00	0.00	0.942	0.000	74.8	31	42.1	73.2	1405	1	100.0	60
04/06/18	7:00 a	42.6	42.6	42.4	93	40.7	0.0	---	0.00	0.0	---	42.6	42.7	42.7	30.092	0.00	0.00	0.933	0.000	77.0	30	43.2	75.8	1405	1	100.0	60
04/06/18	8:00 a	44.9	44.9	42.6	92	42.7	0.0	---	0.00	0.0	---	44.9	45.0	45.0	30.096	0.00	0.00	0.837	0.000	80.4	28	44.3	78.2	1404	1	100.0	60
04/06/18	9:00 a	52.0	52.0	44.9	80	46.0	0.0	---	0.00	0.0	---	52.0	51.8	51.8	30.080	0.00	0.00	0.542	0.000	80.8	28	44.6	78.6	1405	1	100.0	60
04/06/18	10:00 a	59.1	59.1	52.0	60	45.2	0.0	SSW	0.00	10.0	SW	59.1	57.8	57.8	30.061	0.00	0.00	0.246	0.000	78.3	30	44.3	76.6	1405	1	100.0	60
04/06/18	11:00 a	65.3	65.3	59.2	45	43.4	0.0	SSW	0.00	19.0	SW	65.3	63.1	63.1	30.045	0.00	0.00	0.000	0.013	77.8	31	44.7	76.3	1405	1	100.0	60
04/06/18	12:00 p	68.1	68.1	65.3	39	42.2	4.0	SW	4.00	26.0	SSE	68.1	65.6	65.6	30.021	0.00	0.00	0.000	0.129	79.1	32	46.7	77.5	1405	1	100.0	60
04/06/18	1:00 p	70.6	70.6	68.1	38	43.7	0.0	SW	0.00	21.0	SW	70.6	67.9	67.9	29.979	0.00	0.00	0.000	0.233	80.5	32	47.9	78.7	1405	1	100.0	60
04/06/18	2:00 p	72.6	72.6	70.6	32	41.0	0.0	SW	0.00	26.0	SSW	72.6	70.3	70.3	29.931	0.00	0.00	0.000	0.317	82.0	32	49.2	80.3	1405	1	100.0	60
04/06/18	3:00 p	74.5	74.5	72.6	31	41.9	4.0	SSW	4.00	26.0	SSW	74.5	72.9	72.9	29.895	0.00	0.00	0.000	0.396	83.7	32	50.7	82.3	1405	1	100.0	60
04/06/18	4:00 p	74.8	74.8	74.3	32	43.0	4.0	SSW	4.00	26.0	SSE	74.8	73.3	73.3	29.855	0.00	0.00	0.000	0.408	86.1	32	52.8	84.8	1405	1	100.0	60
04/06/18	5:00 p	74.3	75.6	74.3	28	39.1	4.0	SSW	4.00	22.0	SW	74.3	72.4	72.4	29.837	0.00	0.00	0.000	0.388	87.3	32	53.8	85.8	1405	1	100.0	60
04/06/18	6:00 p	73.4	74.3	73.4	30	40.1	0.0	SSW	0.00	21.0	WSW	73.4	71.3	71.3	29.824	0.00	0.00	0.000	0.350	87.7	32	54.2	86.0	1405	1	100.0	60
04/06/18	7:00 p	70.7	73.4	70.7	31	38.6	0.0	SSW	0.00	23.0	SSW	70.7	67.4	67.4	29.822	0.00	0.00	0.000	0.237	87.2	32	53.7	85.7	1405	1	100.0	60
04/06/18	8:00 p	67.6	70.7	67.6	35	39.0	0.0	SSW	0.00	14.0	S	67.6	64.6	64.6	29.809	0.00	0.00	0.000	0.108	88.9	30	53.5	86.9	1404	1	100.0	60
04/06/18	9:00 p	65.8	67.6	65.8	48	45.6	0.0	W	0.00	4.0	WSW	65.8	64.0	64.0	29.815	0.00	0.00	0.000	0.033	88.1	29	51.8	85.7	1405	1	100.0	60
04/06/18	10:00 p	64.4	65.8	64.4	62	51.1	0.0	S	0.00	14.0	SSW	64.4	63.7	63.7	29.816	0.00	0.00	0.025	0.000	87.5	29	51.3	85.3	1404	1	100.0	60
04/06/18	11:00 p	62.7	64.4	62.7	68	52.0	0.0	ENE	0.00	12.0	S	62.7	62.2	62.2	29.818	0.00	0.00	0.096	0.000	86.5	29	50.5	84.6	1405	1	100.0	60
04/07/18	12:00 a	61.8	62.7	61.8	67	50.7	0.0	SSW	0.00	15.0	SSW	61.8	61.2	61.2	29.806	0.00	0.00	0.133	0.000	85.5	30	50.5	83.8	1405	1	100.0	60

SATURDAY		Temp	Hi	Low	Out	Dew	Wind	Wind	Wind	Hi	Hi	Wind	Heat	THW			Rain	Heat	Cool	In 	In	In 	In 	Wind	Wind	ISS 	Arc.
Date		Time	Out	Temp	Temp	Hum	Pt.	Speed	Dir	Run	Speed	Dir	Chill	Index	Index	Bar  	Rain	Rate	D-D 	D-D 	Temp	Hum	Dew	Heat	Samp	Tx 	Recept	Int.
04/07/18	1:00 a	62.7	62.7	61.7	68	52.0	0.0	SSW	0.00	19.0	SSE	62.7	62.2	62.2	29.795	0.00	0.00	0.096	0.000	84.6	30	49.7	82.8	1403	1	100.0	60
04/07/18	2:00 a	63.1	63.2	62.7	72	53.9	0.0	SSW	0.00	21.0	S	63.1	62.9	62.9	29.788	0.00	0.00	0.079	0.000	83.8	30	49.1	82.0	1404	1	100.0	60
04/07/18	3:00 a	61.8	63.2	61.8	80	55.6	0.0	S	0.00	6.0	SSE	61.8	62.0	62.0	29.781	0.01	0.00	0.133	0.000	83.2	30	48.5	81.3	1405	1	100.0	60
04/07/18	4:00 a	60.0	61.8	60.0	81	54.2	0.0	SSW	0.00	5.0	SSW	60.0	59.9	59.9	29.787	0.00	0.00	0.208	0.000	82.4	31	48.7	80.6	1405	1	100.0	60
04/07/18	5:00 a	58.8	60.0	58.8	86	54.6	0.0	WSW	0.00	7.0	WSW	58.8	58.8	58.8	29.789	0.01	0.00	0.258	0.000	81.7	31	48.1	79.9	1405	1	100.0	60
04/07/18	6:00 a	57.0	58.8	57.0	92	54.7	0.0	W	0.00	12.0	W	57.0	57.1	57.1	29.779	0.07	0.70	0.333	0.000	81.2	31	47.7	79.3	1405	1	100.0	60
04/07/18	7:00 a	55.5	57.0	55.5	95	54.1	0.0	WNW	0.00	11.0	WNW	55.5	55.7	55.7	29.787	0.23	0.86	0.396	0.000	82.6	30	48.0	80.6	1405	1	100.0	60
04/07/18	8:00 a	54.8	55.5	54.7	96	53.7	0.0	---	0.00	0.0	---	54.8	55.0	55.0	29.791	0.06	0.38	0.425	0.000	83.4	30	48.7	81.5	1405	1	100.0	60
04/07/18	9:00 a	55.4	55.4	54.7	97	54.6	0.0	---	0.00	0.0	---	55.4	55.7	55.7	29.806	0.00	0.00	0.400	0.000	84.1	30	49.3	82.4	1405	1	100.0	60
04/07/18	10:00 a	52.6	55.5	52.6	87	48.8	0.0	NNE	0.00	29.0	NE	52.6	52.6	52.6	29.859	0.01	0.00	0.517	0.000	84.4	30	49.6	82.7	1403	1	100.0	60
04/07/18	11:00 a	47.6	52.5	47.6	91	45.1	5.0	NE	5.00	26.0	NE	45.4	47.8	45.6	29.892	0.03	0.06	0.725	0.000	83.2	30	48.5	81.3	1405	1	100.0	60
04/07/18	12:00 p	46.9	47.6	46.9	92	44.7	4.0	NE	4.00	23.0	ENE	45.3	47.1	45.5	29.893	0.01	0.00	0.754	0.000	82.4	30	47.8	80.5	1405	1	100.0	60
04/07/18	1:00 p	46.1	46.9	46.1	92	43.9	4.0	NE	4.00	24.0	NE	44.3	46.3	44.5	29.863	0.01	0.04	0.788	0.000	82.7	29	47.2	80.6	1405	1	100.0	60
04/07/18	2:00 p	45.4	46.0	45.3	93	43.5	4.0	ENE	4.00	24.0	NNE	43.5	45.6	43.7	29.838	0.01	0.00	0.817	0.000	81.4	29	46.1	79.3	1405	1	100.0	60
04/07/18	3:00 p	44.9	45.7	44.9	89	41.9	4.0	NE	4.00	28.0	ENE	43.0	45.0	43.1	29.848	0.00	0.00	0.837	0.000	82.7	29	47.2	80.6	1405	1	100.0	60
04/07/18	4:00 p	43.7	44.9	43.7	90	41.0	0.0	NE	0.00	21.0	NE	43.7	43.8	43.8	29.842	0.02	0.00	0.887	0.000	83.6	29	48.0	81.6	1405	1	100.0	60
04/07/18	5:00 p	42.6	43.7	42.6	94	41.0	4.0	NE	4.00	21.0	ENE	40.3	42.7	40.4	29.836	0.05	0.12	0.933	0.000	83.0	29	47.5	80.9	1404	1	100.0	60
04/07/18	6:00 p	42.2	42.6	42.2	94	40.6	0.0	NNE	0.00	20.0	NE	42.2	42.3	42.3	29.846	0.05	0.10	0.950	0.000	81.0	30	46.6	79.0	1405	1	100.0	60
04/07/18	7:00 p	41.3	42.2	41.3	95	40.0	4.0	NE	4.00	27.0	NE	38.8	41.4	38.9	29.842	0.03	0.06	0.988	0.000	82.4	30	47.8	80.5	1405	1	100.0	60
04/07/18	8:00 p	40.5	41.3	40.4	95	39.2	5.0	NE	5.00	27.0	NE	37.1	40.6	37.2	29.845	0.03	0.05	1.021	0.000	83.0	29	47.5	80.9	1405	1	100.0	60
04/07/18	9:00 p	40.1	40.5	40.1	93	38.2	4.0	NE	4.00	27.0	ENE	37.4	40.1	37.4	29.853	0.02	0.00	1.038	0.000	82.5	29	47.0	80.4	1405	1	100.0	60
04/07/18	10:00 p	39.9	40.2	39.9	92	37.8	5.0	NE	5.00	24.0	ENE	36.4	39.9	36.4	29.844	0.01	0.00	1.046	0.000	82.3	29	46.9	80.3	1404	1	100.0	60
04/07/18	11:00 p	39.2	39.9	39.1	94	37.6	11.0	N	11.00	30.0	NE	32.2	39.2	32.2	29.829	0.00	0.00	1.075	0.000	82.3	28	45.9	80.1	1405	1	100.0	60
04/08/18	12:00 a	39.2	39.3	39.1	94	37.6	11.0	N	11.00	29.0	NNW	32.2	39.2	32.2	29.814	0.02	0.00	1.075	0.000	82.9	28	46.4	80.7	1406	1	100.0	60

SUNDAY			Temp	Hi	Low	Out	Dew	Wind	Wind	Wind	Hi	Hi	Wind	Heat	THW			Rain	Heat	Cool	In 	In	In 	In 	Wind	Wind	ISS 	Arc.
Date		Time	Out	Temp	Temp	Hum	Pt.	Speed	Dir	Run	Speed	Dir	Chill	Index	Index	Bar  	Rain	Rate	D-D 	D-D 	Temp	Hum	Dew	Heat	Samp	Tx 	Recept	Int.
04/08/18	1:00 a	38.7	39.2	38.7	94	37.1	11.0	N	11.00	24.0	ENE	31.6	38.7	31.6	29.810	0.03	0.15	1.096	0.000	81.1	28	44.9	78.9	1403	1	100.0	60
04/08/18	2:00 a	37.3	38.7	37.3	95	36.0	11.0	N	11.00	26.0	NW	29.9	37.3	29.9	29.804	0.04	0.06	1.154	0.000	79.4	28	43.4	77.3	1405	1	100.0	60
04/08/18	3:00 a	37.2	37.3	37.0	95	35.9	10.0	N	10.00	23.0	N	30.2	37.2	30.2	29.792	0.05	0.11	1.158	0.000	79.0	28	43.1	77.0	1405	1	100.0	60
04/08/18	4:00 a	37.7	37.7	37.1	91	35.3	5.0	N	5.00	25.0	ENE	33.8	37.6	33.7	29.802	0.00	0.00	1.137	0.000	78.4	28	42.6	76.6	1405	1	100.0	60
04/08/18	5:00 a	37.7	37.8	37.6	89	34.8	4.0	NNW	4.00	22.0	NNW	34.7	37.6	34.6	29.808	0.00	0.00	1.137	0.000	78.3	28	42.5	76.5	1405	1	100.0	60
04/08/18	6:00 a	37.5	37.7	37.5	86	33.7	0.0	WNW	0.00	20.0	WNW	37.5	37.3	37.3	29.830	0.00	0.00	1.146	0.000	78.0	28	42.2	76.3	1404	1	100.0	60
04/08/18	7:00 a	37.7	37.7	37.5	82	32.7	0.0	NW	0.00	23.0	NNW	37.7	37.4	37.4	29.849	0.00	0.00	1.137	0.000	78.2	27	41.5	76.4	1405	1	100.0	60
04/08/18	8:00 a	37.8	37.8	37.6	77	31.2	0.0	NW	0.00	21.0	WNW	37.8	37.4	37.4	29.887	0.00	0.00	1.133	0.000	79.2	27	42.3	77.1	1405	1	100.0	60
04/08/18	9:00 a	39.5	39.5	37.8	73	31.6	0.0	NNW	0.00	22.0	NNW	39.5	39.0	39.0	29.906	0.00	0.00	1.063	0.000	81.0	26	42.9	78.5	1405	1	100.0	60
04/08/18	10:00 a	41.8	41.8	39.5	70	32.7	4.0	NW	4.00	27.0	NNW	39.4	41.2	38.8	29.936	0.00	0.00	0.967	0.000	81.9	26	43.6	79.5	1405	1	100.0	60
04/08/18	11:00 a	43.6	43.6	41.8	60	30.6	4.0	NNW	4.00	26.0	NE	41.5	42.8	40.7	29.951	0.00	0.00	0.892	0.000	82.6	25	43.2	80.0	1405	1	100.0	60
04/08/18	12:00 p	44.3	44.7	43.6	56	29.6	5.0	NE	5.00	27.0	NE	41.5	43.3	40.5	29.958	0.00	0.00	0.863	0.000	82.9	25	43.5	80.3	1405	1	100.0	60
04/08/18	1:00 p	45.0	45.0	44.3	54	29.3	4.0	ENE	4.00	23.0	WNW	43.1	44.0	42.1	29.954	0.00	0.00	0.833	0.000	83.5	25	44.0	81.0	1405	1	100.0	60
04/08/18	2:00 p	46.7	46.7	44.9	55	31.4	0.0	NNW	0.00	18.0	NNW	46.7	45.7	45.7	29.952	0.00	0.00	0.762	0.000	84.9	25	45.1	82.3	1405	1	100.0	60
04/08/18	3:00 p	48.1	48.1	46.7	48	29.3	0.0	NW	0.00	16.0	NW	48.1	46.9	46.9	29.950	0.00	0.00	0.704	0.000	85.5	26	46.7	83.1	1405	1	100.0	60
04/08/18	4:00 p	49.4	49.4	48.0	48	30.5	0.0	WNW	0.00	16.0	W	49.4	48.2	48.2	29.935	0.00	0.00	0.650	0.000	86.3	26	47.4	83.9	1405	1	100.0	60
04/08/18	5:00 p	50.1	50.1	49.4	45	29.6	0.0	NW	0.00	13.0	NW	50.1	48.8	48.8	29.944	0.00	0.00	0.621	0.000	87.0	26	48.0	84.5	1405	1	100.0	60
04/08/18	6:00 p	50.5	50.5	50.1	44	29.4	0.0	W	0.00	7.0	W	50.5	49.1	49.1	29.959	0.00	0.00	0.604	0.000	88.4	25	48.1	85.3	1404	1	100.0	60
04/08/18	7:00 p	49.4	50.5	49.4	47	30.0	0.0	ENE	0.00	7.0	ENE	49.4	48.1	48.1	29.980	0.00	0.00	0.650	0.000	86.9	25	46.8	84.2	1405	1	100.0	60
04/08/18	8:00 p	47.4	49.4	47.4	56	32.5	0.0	---	0.00	0.0	---	47.4	46.4	46.4	30.002	0.00	0.00	0.733	0.000	85.9	25	46.0	83.3	1405	1	100.0	60
04/08/18	9:00 p	44.6	47.4	44.6	69	35.1	0.0	---	0.00	0.0	---	44.6	44.1	44.1	30.032	0.00	0.00	0.850	0.000	84.8	26	46.1	82.4	1405	1	100.0	60
04/08/18	10:00 p	43.3	44.7	43.3	74	35.6	0.0	---	0.00	0.0	---	43.3	42.9	42.9	30.057	0.00	0.00	0.904	0.000	82.9	26	44.5	80.4	1405	1	100.0	60
04/08/18	11:00 p	41.9	43.4	41.9	78	35.5	0.0	---	0.00	0.0	---	41.9	41.6	41.6	30.060	0.00	0.00	0.962	0.000	82.3	26	44.0	79.9	1405	1	100.0	60
04/09/18	12:00 a	41.1	41.8	41.0	79	35.1	0.0	---	0.00	0.0	---	41.1	40.8	40.8	30.070	0.00	0.00	0.996	0.000	81.9	26	43.6	79.5	1405	1	100.0	60

MONDAY			Temp	Hi	Low	Out	Dew	Wind	Wind	Wind	Hi	Hi	Wind	Heat	THW			Rain	Heat	Cool	In 	In	In 	In 	Wind	Wind	ISS 	Arc.
Date		Time	Out	Temp	Temp	Hum	Pt.	Speed	Dir	Run	Speed	Dir	Chill	Index	Index	Bar  	Rain	Rate	D-D 	D-D 	Temp	Hum	Dew	Heat	Samp	Tx 	Recept	Int.
04/09/18	1:00 a	40.0	41.1	40.0	81	34.6	0.0	---	0.00	0.0	---	40.0	39.7	39.7	30.084	0.00	0.00	1.042	0.000	81.2	26	43.0	78.7	1404	1	100.0	60
04/09/18	2:00 a	39.6	40.0	39.5	84	35.2	0.0	---	0.00	0.0	---	39.6	39.4	39.4	30.088	0.00	0.00	1.058	0.000	80.7	26	42.6	78.2	1405	1	100.0	60
04/09/18	3:00 a	40.3	40.3	39.6	86	36.4	0.0	---	0.00	0.0	---	40.3	40.1	40.1	30.099	0.00	0.00	1.029	0.000	80.6	26	42.5	78.2	1404	1	100.0	60
04/09/18	4:00 a	41.8	41.8	40.3	84	37.3	0.0	---	0.00	0.0	---	41.8	41.6	41.6	30.105	0.00	0.00	0.967	0.000	80.5	26	42.4	78.1	1405	1	100.0	60
04/09/18	5:00 a	42.9	42.9	41.8	84	38.4	0.0	---	0.00	0.0	---	42.9	42.8	42.8	30.095	0.00	0.00	0.921	0.000	80.5	26	42.4	78.1	1405	1	100.0	60
04/09/18	6:00 a	43.2	43.2	42.8	83	38.4	0.0	SSE	0.00	4.0	SSE	43.2	43.0	43.0	30.104	0.00	0.00	0.908	0.000	80.6	26	42.5	78.2	1405	1	100.0	60
04/09/18	7:00 a	43.5	43.5	43.2	81	38.1	0.0	---	0.00	0.0	---	43.5	43.3	43.3	30.119	0.00	0.00	0.896	0.000	80.8	26	42.7	78.3	1405	1	100.0	60
04/09/18	8:00 a	45.5	45.5	43.5	69	35.9	0.0	NE	0.00	4.0	ENE	45.5	45.0	45.0	30.148	0.00	0.00	0.813	0.000	81.1	26	43.0	78.6	1405	1	100.0	60
04/09/18	9:00 a	46.2	46.2	45.5	59	32.7	0.0	ENE	0.00	14.0	NE	46.2	45.4	45.4	30.194	0.00	0.00	0.783	0.000	80.9	26	42.8	78.4	1405	1	100.0	60
04/09/18	10:00 a	46.6	46.6	46.2	61	33.9	0.0	NE	0.00	13.0	ENE	46.6	45.8	45.8	30.199	0.00	0.00	0.767	0.000	81.1	27	43.9	78.7	1405	1	100.0	60
04/09/18	11:00 a	47.2	47.2	46.6	69	37.5	0.0	ENE	0.00	14.0	NE	47.2	46.7	46.7	30.198	0.00	0.00	0.742	0.000	76.3	29	41.7	74.9	1405	1	100.0	60
04/09/18	12:00 p	48.8	48.8	47.2	66	37.9	0.0	NE	0.00	10.0	ENE	48.8	48.2	48.2	30.180	0.00	0.00	0.675	0.000	76.2	30	42.5	74.8	1405	1	100.0	60
04/09/18	1:00 p	52.2	52.2	48.8	62	39.6	0.0	ENE	0.00	16.0	ENE	52.2	51.3	51.3	30.170	0.00	0.00	0.533	0.000	77.5	29	42.7	76.1	1405	1	100.0	60
04/09/18	2:00 p	53.3	53.8	52.2	59	39.3	0.0	ENE	0.00	16.0	NE	53.3	52.1	52.1	30.151	0.00	0.00	0.488	0.000	77.9	29	43.1	76.3	1405	1	100.0	60
04/09/18	3:00 p	51.5	53.2	51.5	63	39.3	0.0	ENE	0.00	7.0	S	51.5	50.7	50.7	30.127	0.00	0.00	0.563	0.000	78.6	29	43.7	76.8	1404	1	100.0	60
04/09/18	4:00 p	51.0	52.2	51.0	68	40.8	0.0	SE	0.00	14.0	SE	51.0	50.4	50.4	30.111	0.00	0.00	0.583	0.000	77.9	30	44.0	76.3	1405	1	100.0	60
04/09/18	5:00 p	49.4	51.1	49.4	73	41.1	0.0	---	0.00	0.0	---	49.4	49.1	49.1	30.122	0.00	0.00	0.650	0.000	78.3	29	43.4	76.6	1406	1	100.0	60
04/09/18	6:00 p	48.2	49.5	48.2	76	41.0	0.0	---	0.00	0.0	---	48.2	47.9	47.9	30.120	0.00	0.00	0.700	0.000	78.2	29	43.3	76.5	1404	1	100.0	60
04/09/18	7:00 p	47.1	48.3	47.1	76	39.9	0.0	SE	0.00	4.0	SE	47.1	46.8	46.8	30.114	0.00	0.00	0.746	0.000	78.1	29	43.2	76.4	1405	1	100.0	60
04/09/18	8:00 p	46.3	47.1	46.3	77	39.5	0.0	E	0.00	4.0	E	46.3	46.0	46.0	30.108	0.00	0.00	0.779	0.000	77.8	30	43.9	76.3	1405	1	100.0	60
04/09/18	9:00 p	46.1	46.3	46.1	78	39.6	0.0	---	0.00	0.0	---	46.1	45.8	45.8	30.135	0.00	0.00	0.788	0.000	77.5	30	43.6	76.1	1405	1	100.0	60
04/09/18	10:00 p	45.9	46.2	45.8	82	40.7	0.0	ENE	0.00	4.0	ENE	45.9	45.8	45.8	30.136	0.00	0.00	0.796	0.000	77.3	30	43.4	76.0	1405	1	100.0	60
04/09/18	11:00 p	46.0	46.1	45.9	83	41.1	0.0	---	0.00	0.0	---	46.0	45.9	45.9	30.122	0.00	0.00	0.792	0.000	77.2	30	43.4	75.9	1405	1	100.0	60
04/10/18	12:00 a	45.9	46.1	45.9	85	41.6	0.0	---	0.00	0.0	---	45.9	45.9	45.9	30.103	0.00	0.00	0.796	0.000	76.9	30	43.1	75.7	1405	1	100.0	60

TUESDAY			Temp	Hi	Low	Out	Dew	Wind	Wind	Wind	Hi	Hi	Wind	Heat	THW			Rain	Heat	Cool	In 	In	In 	In 	Wind	Wind	ISS 	Arc.
Date		Time	Out	Temp	Temp	Hum	Pt.	Speed	Dir	Run	Speed	Dir	Chill	Index	Index	Bar  	Rain	Rate	D-D 	D-D 	Temp	Hum	Dew	Heat	Samp	Tx 	Recept	Int.
04/10/18	1:00 a	46.3	46.3	45.9	84	41.7	0.0	---	0.00	0.0	---	46.3	46.3	46.3	30.120	0.00	0.00	0.779	0.000	75.9	31	43.1	74.4	1403	1	100.0	60
04/10/18	2:00 a	46.9	46.9	46.3	85	42.6	0.0	---	0.00	0.0	---	46.9	46.9	46.9	30.118	0.00	0.00	0.754	0.000	75.4	31	42.7	73.9	1405	1	100.0	60
04/10/18	3:00 a	47.4	47.4	46.9	86	43.4	0.0	---	0.00	0.0	---	47.4	47.4	47.4	30.116	0.00	0.00	0.733	0.000	75.4	31	42.7	73.9	1405	1	100.0	60
04/10/18	4:00 a	47.2	47.4	47.2	84	42.6	0.0	NW	0.00	11.0	NW	47.2	47.2	47.2	30.113	0.00	0.00	0.742	0.000	75.4	31	42.7	73.9	1405	1	100.0	60
04/10/18	5:00 a	46.8	47.3	46.8	85	42.5	0.0	NW	0.00	17.0	NNW	46.8	46.8	46.8	30.113	0.00	0.00	0.758	0.000	75.4	31	42.7	73.9	1405	1	100.0	60
04/10/18	6:00 a	46.8	46.8	46.7	87	43.1	0.0	NNW	0.00	6.0	NW	46.8	46.9	46.9	30.123	0.00	0.00	0.758	0.000	75.3	31	42.6	73.7	1405	1	100.0	60
04/10/18	7:00 a	46.7	46.9	46.7	87	43.0	0.0	---	0.00	0.0	---	46.7	46.8	46.8	30.144	0.00	0.00	0.762	0.000	80.3	28	44.2	78.1	1405	1	100.0	60
04/10/18	8:00 a	47.6	47.6	46.7	86	43.6	0.0	NE	0.00	13.0	NW	47.6	47.6	47.6	30.161	0.00	0.00	0.725	0.000	80.8	28	44.6	78.6	1405	1	100.0	60
04/10/18	9:00 a	47.8	47.9	47.6	84	43.2	0.0	NW	0.00	17.0	NE	47.8	47.8	47.8	30.185	0.00	0.00	0.717	0.000	81.2	29	45.9	79.1	1405	1	100.0	60
04/10/18	10:00 a	48.5	48.5	47.8	77	41.6	0.0	ENE	0.00	18.0	NNW	48.5	48.3	48.3	30.184	0.00	0.00	0.688	0.000	80.7	30	46.4	78.7	1404	1	100.0	60
04/10/18	11:00 a	49.4	49.4	48.5	69	39.7	4.0	NE	4.00	21.0	NE	48.2	49.0	47.8	30.196	0.00	0.00	0.650	0.000	78.1	31	45.0	76.5	1405	1	100.0	60
04/10/18	12:00 p	50.5	50.6	49.4	69	40.7	0.0	NE	0.00	21.0	NE	50.5	50.0	50.0	30.187	0.00	0.00	0.604	0.000	77.8	31	44.7	76.3	1405	1	100.0	60
04/10/18	1:00 p	50.6	50.8	50.5	68	40.4	0.0	ENE	0.00	18.0	ENE	50.6	50.1	50.1	30.172	0.00	0.00	0.600	0.000	78.4	31	45.3	76.8	1405	1	100.0	60
04/10/18	2:00 p	51.8	51.8	50.6	64	40.0	0.0	E	0.00	7.0	NNE	51.8	51.0	51.0	30.159	0.00	0.00	0.550	0.000	79.0	31	45.8	77.3	1405	1	100.0	60
04/10/18	3:00 p	52.9	52.9	51.7	62	40.2	0.0	NE	0.00	5.0	NE	52.9	51.9	51.9	30.126	0.00	0.00	0.504	0.000	80.4	31	47.0	78.5	1404	1	100.0	60
04/10/18	4:00 p	52.9	53.3	52.6	59	39.0	0.0	NE	0.00	14.0	E	52.9	51.8	51.8	30.105	0.00	0.00	0.504	0.000	81.3	31	47.8	79.4	1405	1	100.0	60
04/10/18	5:00 p	53.8	53.8	52.8	57	38.9	0.0	ENE	0.00	6.0	ENE	53.8	52.5	52.5	30.096	0.00	0.00	0.467	0.000	82.1	30	47.6	80.2	1405	1	100.0	60
04/10/18	6:00 p	53.1	53.9	53.1	54	36.9	0.0	ENE	0.00	7.0	NE	53.1	51.7	51.7	30.103	0.00	0.00	0.496	0.000	83.5	29	47.9	81.5	1405	1	100.0	60
04/10/18	7:00 p	51.9	53.1	51.9	54	35.8	0.0	NE	0.00	7.0	NE	51.9	50.7	50.7	30.104	0.00	0.00	0.546	0.000	83.0	29	47.5	80.9	1405	1	100.0	60
04/10/18	8:00 p	49.8	51.9	49.8	56	34.7	0.0	ENE	0.00	7.0	NE	49.8	48.8	48.8	30.118	0.00	0.00	0.633	0.000	82.2	29	46.8	80.2	1405	1	100.0	60
04/10/18	9:00 p	48.6	49.8	48.6	68	38.5	0.0	NE	0.00	4.0	ENE	48.6	48.1	48.1	30.138	0.00	0.00	0.683	0.000	81.1	29	45.8	79.0	1405	1	100.0	60
04/10/18	10:00 p	46.1	48.6	46.1	76	39.0	0.0	---	0.00	0.0	---	46.1	45.7	45.7	30.169	0.00	0.00	0.788	0.000	80.1	30	45.9	78.1	1405	1	100.0	60
04/10/18	11:00 p	43.9	46.1	43.9	81	38.4	0.0	---	0.00	0.0	---	43.9	43.7	43.7	30.183	0.00	0.00	0.879	0.000	79.2	30	45.1	77.4	1405	1	100.0	60
04/11/18	12:00 a	42.8	43.9	42.8	86	38.9	0.0	---	0.00	0.0	---	42.8	42.7	42.7	30.173	0.00	0.00	0.925	0.000	77.5	30	43.6	76.1	1405	1	100.0	60

WEDNESDAY		Temp	Hi	Low	Out	Dew	Wind	Wind	Wind	Hi	Hi	Wind	Heat	THW			Rain	Heat	Cool	In 	In	In 	In 	Wind	Wind	ISS 	Arc.
Date		Time	Out	Temp	Temp	Hum	Pt.	Speed	Dir	Run	Speed	Dir	Chill	Index	Index	Bar  	Rain	Rate	D-D 	D-D 	Temp	Hum	Dew	Heat	Samp	Tx 	Recept	Int.
04/11/18	1:00 a	41.8	42.8	41.8	88	38.5	0.0	---	0.00	0.0	---	41.8	41.7	41.7	30.170	0.00	0.00	0.967	0.000	76.9	30	43.1	75.7	1403	1	100.0	60
04/11/18	2:00 a	40.7	41.8	40.7	89	37.7	0.0	---	0.00	0.0	---	40.7	40.6	40.6	30.159	0.00	0.00	1.012	0.000	76.3	30	42.6	74.9	1405	1	100.0	60
04/11/18	3:00 a	39.6	40.7	39.6	89	36.6	0.0	---	0.00	0.0	---	39.6	39.5	39.5	30.156	0.00	0.00	1.058	0.000	75.7	30	42.1	74.1	1405	1	100.0	60
04/11/18	4:00 a	39.8	39.8	39.2	87	36.2	0.0	---	0.00	0.0	---	39.8	39.6	39.6	30.139	0.00	0.00	1.050	0.000	75.2	30	41.6	73.5	1405	1	100.0	60
04/11/18	5:00 a	40.1	40.4	39.8	84	35.7	0.0	---	0.00	0.0	---	40.1	39.9	39.9	30.141	0.00	0.00	1.038	0.000	74.8	30	41.3	73.1	1405	1	100.0	60
04/11/18	6:00 a	39.1	40.1	39.1	85	35.0	0.0	---	0.00	0.0	---	39.1	38.9	38.9	30.152	0.00	0.00	1.079	0.000	74.3	30	40.8	72.6	1405	1	100.0	60
04/11/18	7:00 a	39.5	39.5	39.1	87	36.0	0.0	---	0.00	0.0	---	39.5	39.3	39.3	30.166	0.00	0.00	1.063	0.000	78.5	28	42.7	76.7	1405	1	100.0	60
04/11/18	8:00 a	42.6	42.6	39.5	87	39.0	0.0	---	0.00	0.0	---	42.6	42.5	42.5	30.187	0.00	0.00	0.933	0.000	80.7	27	43.6	78.4	1405	1	100.0	60
04/11/18	9:00 a	47.3	47.3	42.6	73	39.1	0.0	---	0.00	0.0	---	47.3	46.9	46.9	30.185	0.00	0.00	0.738	0.000	82.5	26	44.1	80.1	1405	1	100.0	60
04/11/18	10:00 a	50.2	50.2	47.2	59	36.4	0.0	NE	0.00	4.0	NE	50.2	49.3	49.3	30.190	0.00	0.00	0.617	0.000	83.0	26	44.6	80.5	1405	1	100.0	60
04/11/18	11:00 a	53.6	53.6	50.2	51	35.9	0.0	E	0.00	4.0	S	53.6	52.0	52.0	30.206	0.00	0.00	0.475	0.000	83.1	29	47.5	81.0	1404	1	100.0	60
04/11/18	12:00 p	54.2	54.2	53.5	48	34.9	0.0	ENE	0.00	6.0	ENE	54.2	52.4	52.4	30.194	0.00	0.00	0.450	0.000	85.2	28	48.4	83.1	1405	1	100.0	60
04/11/18	1:00 p	56.1	56.1	54.2	47	36.1	0.0	SSE	0.00	7.0	S	56.1	54.0	54.0	30.179	0.00	0.00	0.371	0.000	85.7	28	48.8	83.6	1405	1	100.0	60
04/11/18	2:00 p	56.8	56.8	56.1	47	36.8	0.0	ENE	0.00	12.0	ENE	56.8	54.7	54.7	30.167	0.00	0.00	0.342	0.000	86.4	29	50.4	84.5	1405	1	100.0	60
04/11/18	3:00 p	57.0	57.0	56.6	47	37.0	0.0	ENE	0.00	6.0	NW	57.0	54.9	54.9	30.145	0.00	0.00	0.333	0.000	87.5	28	50.4	85.1	1405	1	100.0	60
04/11/18	4:00 p	58.5	58.5	57.0	45	37.2	0.0	---	0.00	0.0	---	58.5	56.2	56.2	30.128	0.00	0.00	0.271	0.000	88.8	28	51.5	86.4	1405	1	100.0	60
04/11/18	5:00 p	57.5	58.5	57.2	44	35.7	0.0	---	0.00	0.0	---	57.5	55.2	55.2	30.120	0.00	0.00	0.313	0.000	88.2	28	51.0	85.6	1405	1	100.0	60
04/11/18	6:00 p	57.7	58.0	57.5	47	37.6	0.0	S	0.00	5.0	SSE	57.7	55.6	55.6	30.125	0.00	0.00	0.304	0.000	88.7	27	50.4	86.0	1405	1	100.0	60
04/11/18	7:00 p	55.8	57.7	55.8	49	36.9	0.0	SE	0.00	7.0	SE	55.8	53.9	53.9	30.132	0.00	0.00	0.383	0.000	89.2	26	49.8	86.5	1405	1	100.0	60
04/11/18	8:00 p	52.1	55.8	52.1	54	35.9	0.0	S	0.00	6.0	S	52.1	50.8	50.8	30.139	0.00	0.00	0.538	0.000	88.5	26	49.2	85.6	1405	1	100.0	60
04/11/18	9:00 p	48.8	52.1	48.8	56	33.8	0.0	S	0.00	4.0	S	48.8	47.8	47.8	30.153	0.00	0.00	0.675	0.000	86.4	26	47.5	83.9	1405	1	100.0	60
04/11/18	10:00 p	46.8	48.8	46.8	63	34.9	0.0	---	0.00	0.0	---	46.8	46.1	46.1	30.167	0.00	0.00	0.758	0.000	85.5	26	46.7	83.1	1405	1	100.0	60
04/11/18	11:00 p	45.3	46.8	45.3	73	37.2	0.0	E	0.00	4.0	E	45.3	44.9	44.9	30.169	0.00	0.00	0.821	0.000	84.8	26	46.1	82.4	1405	1	100.0	60
04/12/18	12:00 a	44.3	45.3	44.3	79	38.2	0.0	S	0.00	4.0	SSE	44.3	44.1	44.1	30.167	0.00	0.00	0.863	0.000	84.2	26	45.6	81.8	1404	1	100.0	60

THURSDAY		Temp	Hi	Low	Out	Dew	Wind	Wind	Wind	Hi	Hi	Wind	Heat	THW			Rain	Heat	Cool	In 	In	In 	In 	Wind	Wind	ISS 	Arc.
Date		Time	Out	Temp	Temp	Hum	Pt.	Speed	Dir	Run	Speed	Dir	Chill	Index	Index	Bar  	Rain	Rate	D-D 	D-D 	Temp	Hum	Dew	Heat	Samp	Tx 	Recept	Int.
04/12/18	1:00 a	43.5	44.3	43.4	83	38.7	0.0	---	0.00	0.0	---	43.5	43.3	43.3	30.169	0.00	0.00	0.896	0.000	82.5	26	44.1	80.1	1403	1	100.0	60
04/12/18	2:00 a	43.0	43.5	42.9	87	39.4	0.0	---	0.00	0.0	---	43.0	42.9	42.9	30.152	0.00	0.00	0.917	0.000	81.9	26	43.6	79.5	1405	1	100.0	60
04/12/18	3:00 a	43.3	43.3	42.9	88	40.0	0.0	S	0.00	10.0	SSW	43.3	43.3	43.3	30.138	0.00	0.00	0.904	0.000	81.4	26	43.2	79.0	1405	1	100.0	60
04/12/18	4:00 a	43.7	43.7	43.3	91	41.2	0.0	SSW	0.00	7.0	SW	43.7	43.8	43.8	30.142	0.00	0.00	0.887	0.000	81.0	26	42.9	78.5	1405	1	100.0	60
04/12/18	5:00 a	43.5	43.7	43.5	92	41.3	0.0	---	0.00	0.0	---	43.5	43.6	43.6	30.145	0.00	0.00	0.896	0.000	80.7	26	42.6	78.2	1405	1	100.0	60
04/12/18	6:00 a	43.2	43.5	43.2	92	41.0	0.0	---	0.00	0.0	---	43.2	43.3	43.3	30.158	0.00	0.00	0.908	0.000	80.8	26	42.7	78.3	1405	1	100.0	60
04/12/18	7:00 a	43.3	43.4	43.0	93	41.4	0.0	---	0.00	0.0	---	43.3	43.4	43.4	30.172	0.00	0.00	0.904	0.000	81.5	26	43.3	79.1	1405	1	100.0	60
04/12/18	8:00 a	46.7	46.7	43.3	90	43.9	0.0	---	0.00	0.0	---	46.7	46.9	46.9	30.190	0.00	0.00	0.762	0.000	80.4	27	43.3	78.1	1405	1	100.0	60
04/12/18	9:00 a	52.4	52.4	46.7	80	46.4	0.0	SW	0.00	15.0	SW	52.4	52.2	52.2	30.199	0.00	0.00	0.525	0.000	81.6	27	44.4	79.3	1405	1	100.0	60
04/12/18	10:00 a	60.1	60.1	52.5	68	49.5	0.0	SSW	0.00	15.0	SSW	60.1	59.4	59.4	30.197	0.00	0.00	0.204	0.000	83.1	26	44.7	80.6	1404	1	100.0	60
04/12/18	11:00 a	66.0	66.0	60.1	59	51.3	0.0	SW	0.00	20.0	SSE	66.0	65.2	65.2	30.193	0.00	0.00	0.000	0.042	79.2	30	45.1	77.4	1405	1	100.0	60
04/12/18	12:00 p	69.5	69.5	66.0	57	53.6	0.0	SW	0.00	18.0	SSW	69.5	68.5	68.5	30.182	0.00	0.00	0.000	0.188	79.6	31	46.3	77.8	1405	1	100.0	60
04/12/18	1:00 p	72.2	72.2	69.5	46	50.3	0.0	SSW	0.00	22.0	WSW	72.2	71.0	71.0	30.145	0.00	0.00	0.000	0.300	80.9	31	47.4	79.0	1405	1	100.0	60
04/12/18	2:00 p	73.7	73.7	72.1	42	49.2	4.0	SSW	4.00	30.0	SW	73.7	72.8	72.8	30.113	0.00	0.00	0.000	0.362	82.6	32	49.7	80.9	1405	1	100.0	60
04/12/18	3:00 p	74.9	74.9	73.7	41	49.6	4.0	SSW	4.00	22.0	S	74.9	74.2	74.2	30.072	0.00	0.00	0.000	0.413	84.3	32	51.2	83.0	1405	1	100.0	60
04/12/18	4:00 p	75.3	75.3	74.8	38	47.9	5.0	SW	5.00	27.0	WSW	75.3	74.3	74.3	30.038	0.00	0.00	0.000	0.429	86.7	32	53.3	85.3	1405	1	100.0	60
04/12/18	5:00 p	74.6	75.4	74.6	36	45.9	4.0	SSW	4.00	33.0	SW	74.6	73.4	73.4	30.009	0.00	0.00	0.000	0.400	88.2	32	54.6	86.4	1405	1	100.0	60
04/12/18	6:00 p	72.9	74.6	72.9	35	43.6	4.0	SSW	4.00	29.0	S	72.9	71.0	71.0	30.000	0.00	0.00	0.000	0.329	89.0	31	54.4	87.3	1405	1	100.0	60
04/12/18	7:00 p	70.8	72.9	70.8	40	45.3	4.0	SSW	4.00	28.0	SW	70.8	68.3	68.3	30.005	0.00	0.00	0.000	0.242	88.4	32	54.8	86.7	1405	1	100.0	60
04/12/18	8:00 p	65.8	70.8	65.8	47	45.0	0.0	SSE	0.00	16.0	ESE	65.8	63.9	63.9	30.031	0.00	0.00	0.000	0.033	87.1	32	53.7	85.7	1405	1	100.0	60
04/12/18	9:00 p	63.1	65.8	63.1	48	43.1	0.0	S	0.00	7.0	S	63.1	61.0	61.0	30.029	0.00	0.00	0.079	0.000	85.7	32	52.4	84.4	1405	1	100.0	60
04/12/18	10:00 p	61.6	63.1	61.6	57	46.2	0.0	SSW	0.00	21.0	SW	61.6	60.2	60.2	30.047	0.00	0.00	0.142	0.000	84.3	32	51.2	83.0	1403	1	100.0	60
04/12/18	11:00 p	60.5	61.6	60.5	59	46.1	0.0	SW	0.00	21.0	SW	60.5	59.2	59.2	30.059	0.00	0.00	0.188	0.000	82.9	32	50.0	81.2	1405	1	100.0	60
04/13/18	12:00 a	59.6	60.5	59.6	63	47.0	0.0	SSW	0.00	16.0	S	59.6	58.5	58.5	30.067	0.00	0.00	0.225	0.000	81.3	33	49.4	79.6	1404	1	100.0	60

FRIDAY			Temp	Hi	Low	Out	Dew	Wind	Wind	Wind	Hi	Hi	Wind	Heat	THW			Rain	Heat	Cool	In 	In	In 	In 	Wind	Wind	ISS 	Arc.
Date		Time	Out	Temp	Temp	Hum	Pt.	Speed	Dir	Run	Speed	Dir	Chill	Index	Index	Bar  	Rain	Rate	D-D 	D-D 	Temp	Hum	Dew	Heat	Samp	Tx 	Recept	Int.
04/13/18	1:00 a	58.7	59.6	58.7	66	47.4	0.0	S	0.00	16.0	WSW	58.7	57.8	57.8	30.075	0.00	0.00	0.262	0.000	80.1	33	48.4	78.4	1403	1	100.0	60
04/13/18	2:00 a	57.8	58.7	57.8	68	47.3	0.0	SW	0.00	17.0	SW	57.8	56.9	56.9	30.068	0.00	0.00	0.300	0.000	79.0	33	47.4	77.6	1405	1	100.0	60
04/13/18	3:00 a	57.2	57.8	57.2	70	47.5	0.0	S	0.00	17.0	S	57.2	56.4	56.4	30.052	0.00	0.00	0.325	0.000	78.0	34	47.4	76.6	1405	1	100.0	60
04/13/18	4:00 a	57.1	57.2	56.9	75	49.2	0.0	SSW	0.00	17.0	WSW	57.1	56.6	56.6	30.044	0.00	0.00	0.329	0.000	78.1	33	46.6	76.7	1405	1	100.0	60
04/13/18	5:00 a	57.5	57.5	57.1	77	50.3	0.0	SW	0.00	19.0	SW	57.5	57.1	57.1	30.050	0.00	0.00	0.313	0.000	77.0	34	46.5	76.0	1405	1	100.0	60
04/13/18	6:00 a	57.1	57.5	57.1	80	51.0	0.0	SSW	0.00	20.0	SSW	57.1	56.8	56.8	30.081	0.00	0.00	0.329	0.000	77.2	34	46.7	76.1	1405	1	100.0	60
04/13/18	7:00 a	56.8	57.1	56.8	83	51.7	0.0	S	0.00	14.0	SW	56.8	56.6	56.6	30.104	0.00	0.00	0.342	0.000	76.8	34	46.3	75.7	1405	1	100.0	60
04/13/18	8:00 a	59.1	59.1	56.8	83	53.9	0.0	SW	0.00	19.0	SSW	59.1	59.0	59.0	30.112	0.00	0.00	0.246	0.000	78.3	33	46.8	76.9	1405	1	100.0	60
04/13/18	9:00 a	64.2	64.2	59.1	77	56.8	7.0	SSW	7.00	29.0	SSW	64.2	64.5	64.5	30.116	0.00	0.00	0.033	0.000	78.9	33	47.3	77.5	1405	1	100.0	60
04/13/18	10:00 a	69.0	69.0	64.2	68	58.0	4.0	SSW	4.00	25.0	S	69.0	69.2	69.2	30.114	0.00	0.00	0.000	0.167	79.5	34	48.7	78.0	1405	1	100.0	60
04/13/18	11:00 a	72.3	72.3	69.0	60	57.6	4.0	SW	4.00	21.0	SSW	72.3	72.4	72.4	30.111	0.00	0.00	0.000	0.304	80.5	34	49.5	78.9	1405	1	100.0	60
04/13/18	12:00 p	75.7	75.7	72.3	54	57.9	4.0	SSW	4.00	26.0	S	75.7	76.0	76.0	30.097	0.00	0.00	0.000	0.446	82.0	34	50.9	80.6	1404	1	100.0	60
04/13/18	1:00 p	78.3	78.3	75.7	49	57.6	4.0	SW	4.00	26.0	S	78.3	78.3	78.3	30.063	0.00	0.00	0.000	0.554	83.8	35	53.2	83.0	1405	1	100.0	60
04/13/18	2:00 p	80.7	80.7	78.3	45	57.4	4.0	SSW	4.00	25.0	SSE	80.7	80.3	80.3	30.044	0.00	0.00	0.000	0.654	85.7	35	54.9	85.0	1405	1	100.0	60
04/13/18	3:00 p	82.1	82.1	80.7	44	58.0	4.0	SSW	4.00	20.0	SW	82.1	81.9	81.9	30.017	0.00	0.00	0.000	0.712	87.8	35	56.7	86.7	1405	1	100.0	60
04/13/18	4:00 p	82.7	83.0	82.1	42	57.3	0.0	SSW	0.00	21.0	SSW	82.7	82.6	82.6	29.994	0.00	0.00	0.000	0.737	90.2	35	58.8	90.2	1405	1	100.0	60
04/13/18	5:00 p	81.1	82.7	81.1	45	57.7	4.0	S	4.00	24.0	WSW	81.1	80.7	80.7	29.988	0.00	0.00	0.000	0.671	91.2	35	59.7	91.5	1405	1	100.0	60
04/13/18	6:00 p	80.5	81.2	80.5	47	58.4	4.0	SW	4.00	20.0	WSW	80.5	80.3	80.3	29.990	0.00	0.00	0.000	0.646	92.4	34	60.0	92.9	1405	1	100.0	60
04/13/18	7:00 p	78.7	80.5	78.7	49	57.9	0.0	S	0.00	16.0	S	78.7	78.7	78.7	30.004	0.00	0.00	0.000	0.571	92.1	34	59.7	92.5	1405	1	100.0	60
04/13/18	8:00 p	75.2	78.6	75.2	55	57.9	0.0	SSW	0.00	13.0	SW	75.2	75.7	75.7	30.013	0.00	0.00	0.000	0.425	90.4	35	59.0	90.4	1405	1	100.0	60
04/13/18	9:00 p	71.9	75.2	71.9	69	61.2	0.0	S	0.00	13.0	SSW	71.9	72.5	72.5	30.033	0.00	0.00	0.000	0.288	89.0	36	58.6	88.6	1405	1	100.0	60
04/13/18	10:00 p	69.3	71.9	69.2	73	60.3	0.0	S	0.00	7.0	S	69.3	70.0	70.0	30.059	0.00	0.00	0.000	0.179	87.9	36	57.6	87.0	1405	1	100.0	60
04/13/18	11:00 p	67.1	69.2	67.1	77	59.6	0.0	SSW	0.00	12.0	SSE	67.1	68.0	68.0	30.062	0.00	0.00	0.000	0.087	86.8	36	56.6	86.2	1405	1	100.0	60
04/14/18	12:00 a	65.5	67.1	65.4	81	59.5	0.0	WSW	0.00	7.0	ESE	65.5	66.3	66.3	30.063	0.00	0.00	0.000	0.021	85.7	36	55.7	85.1	1406	1	100.0	60

SATURDAY		Temp	Hi	Low	Out	Dew	Wind	Wind	Wind	Hi	Hi	Wind	Heat	THW			Rain	Heat	Cool	In 	In	In 	In 	Wind	Wind	ISS 	Arc.
Date		Time	Out	Temp	Temp	Hum	Pt.	Speed	Dir	Run	Speed	Dir	Chill	Index	Index	Bar  	Rain	Rate	D-D 	D-D 	Temp	Hum	Dew	Heat	Samp	Tx 	Recept	Int.
04/14/18	1:00 a	64.4	65.4	64.4	83	59.1	0.0	SSW	0.00	15.0	SW	64.4	65.0	65.0	30.063	0.00	0.00	0.025	0.000	84.6	36	54.7	84.0	1402	1	100.0	60
04/14/18	2:00 a	63.6	64.5	63.6	84	58.7	0.0	SSW	0.00	21.0	WSW	63.6	64.1	64.1	30.063	0.00	0.00	0.058	0.000	83.7	37	54.7	83.2	1406	1	100.0	60
04/14/18	3:00 a	62.7	63.6	62.7	85	58.1	0.0	SW	0.00	13.0	S	62.7	63.1	63.1	30.057	0.00	0.00	0.096	0.000	82.9	37	54.0	82.0	1405	1	100.0	60
04/14/18	4:00 a	62.0	62.7	62.0	86	57.8	0.0	SW	0.00	11.0	SSW	62.0	62.3	62.3	30.052	0.00	0.00	0.125	0.000	82.0	37	53.2	80.9	1404	1	100.0	60
04/14/18	5:00 a	61.3	62.0	61.3	87	57.4	0.0	SW	0.00	7.0	SSW	61.3	61.6	61.6	30.047	0.00	0.00	0.154	0.000	81.1	37	52.4	79.8	1405	1	100.0	60
04/14/18	6:00 a	60.6	61.3	60.6	88	57.0	0.0	SW	0.00	13.0	WNW	60.6	60.9	60.9	30.065	0.00	0.00	0.183	0.000	80.5	37	51.8	79.2	1405	1	100.0	60
04/14/18	7:00 a	60.3	60.6	60.3	90	57.4	0.0	---	0.00	0.0	---	60.3	60.6	60.6	30.087	0.00	0.00	0.196	0.000	84.5	34	53.0	83.6	1405	1	100.0	60
04/14/18	8:00 a	62.4	62.4	60.3	88	58.8	0.0	SSW	0.00	4.0	W	62.4	62.9	62.9	30.095	0.00	0.00	0.108	0.000	85.4	32	52.2	84.0	1405	1	100.0	60
04/14/18	9:00 a	66.8	66.8	62.4	79	60.1	0.0	SSW	0.00	16.0	SSW	66.8	67.8	67.8	30.089	0.00	0.00	0.000	0.075	85.3	32	52.1	83.9	1405	1	100.0	60
04/14/18	10:00 a	71.6	71.6	66.8	71	61.7	0.0	SSW	0.00	22.0	WSW	71.6	72.2	72.2	30.088	0.00	0.00	0.000	0.275	86.7	32	53.3	85.3	1405	1	100.0	60
04/14/18	11:00 a	75.2	75.2	71.6	63	61.7	0.0	SW	0.00	19.0	WSW	75.2	76.3	76.3	30.073	0.00	0.00	0.000	0.425	88.1	32	54.5	86.3	1405	1	100.0	60
04/14/18	12:00 p	77.8	77.8	75.2	58	61.8	0.0	SW	0.00	18.0	SSW	77.8	78.5	78.5	30.066	0.00	0.00	0.000	0.533	89.6	32	55.8	88.6	1405	1	100.0	60
04/14/18	1:00 p	79.8	79.8	77.8	54	61.7	0.0	SSW	0.00	19.0	SSW	79.8	80.4	80.4	30.042	0.00	0.00	0.000	0.617	91.3	33	58.2	91.2	1405	1	100.0	60
04/14/18	2:00 p	81.4	81.4	79.8	53	62.6	0.0	SW	0.00	19.0	SW	81.4	82.2	82.2	30.015	0.00	0.00	0.000	0.683	92.4	34	60.0	92.9	1405	1	100.0	60
04/14/18	3:00 p	82.8	82.8	81.4	50	62.3	0.0	SSW	0.00	22.0	SSW	82.8	83.9	83.9	29.994	0.00	0.00	0.000	0.742	94.1	34	61.4	95.3	1404	1	100.0	60
04/14/18	4:00 p	83.7	83.8	82.7	50	63.1	4.0	SSW	4.00	21.0	SSW	83.7	85.3	85.3	29.965	0.00	0.00	0.000	0.779	96.4	33	62.6	98.4	1405	1	100.0	60
04/14/18	5:00 p	81.6	83.7	81.6	50	61.2	4.0	SW	4.00	23.0	SSE	81.6	82.0	82.0	29.946	0.00	0.00	0.000	0.692	97.3	33	63.4	99.9	1406	1	100.0	60
04/14/18	6:00 p	81.1	82.7	81.1	49	60.1	4.0	SSW	4.00	20.0	SW	81.1	81.2	81.2	29.950	0.00	0.00	0.000	0.671	97.9	32	63.0	100.4	1404	1	100.0	60
04/14/18	7:00 p	79.1	81.1	79.1	54	61.0	0.0	SW	0.00	14.0	SW	79.1	79.6	79.6	29.961	0.00	0.00	0.000	0.587	97.0	33	63.1	99.4	1405	1	100.0	60
04/14/18	8:00 p	76.0	79.1	76.0	69	65.1	0.0	SSE	0.00	11.0	SSE	76.0	77.7	77.7	29.979	0.00	0.00	0.000	0.458	96.1	33	62.3	98.0	1405	1	100.0	60
04/14/18	9:00 p	72.6	75.9	72.6	78	65.3	0.0	S	0.00	10.0	SSE	72.6	74.1	74.1	29.993	0.00	0.00	0.000	0.317	95.1	33	61.5	96.5	1405	1	100.0	60
04/14/18	10:00 p	70.2	72.6	70.2	83	64.8	0.0	S	0.00	12.0	SSW	70.2	71.6	71.6	30.019	0.00	0.00	0.000	0.217	94.1	33	60.6	95.0	1405	1	100.0	60
04/14/18	11:00 p	68.6	70.2	68.6	85	63.9	0.0	SSE	0.00	5.0	SW	68.6	70.3	70.3	30.021	0.00	0.00	0.000	0.150	92.9	33	59.6	93.3	1405	1	100.0	60
04/15/18	12:00 a	67.5	68.6	67.5	88	63.8	0.0	---	0.00	0.0	---	67.5	69.0	69.0	30.019	0.00	0.00	0.000	0.104	92.0	34	59.6	92.4	1405	1	100.0	60

SUNDAY			Temp	Hi	Low	Out	Dew	Wind	Wind	Wind	Hi	Hi	Wind	Heat	THW			Rain	Heat	Cool	In 	In	In 	In 	Wind	Wind	ISS 	Arc.
Date		Time	Out	Temp	Temp	Hum	Pt.	Speed	Dir	Run	Speed	Dir	Chill	Index	Index	Bar  	Rain	Rate	D-D 	D-D 	Temp	Hum	Dew	Heat	Samp	Tx 	Recept	Int.
04/15/18	1:00 a	66.8	67.5	66.8	91	64.1	0.0	SSW	0.00	10.0	SSW	66.8	68.3	68.3	30.019	0.00	0.00	0.000	0.075	91.0	34	58.7	91.0	1404	1	100.0	60
04/15/18	2:00 a	66.4	66.8	66.4	93	64.3	0.0	SSE	0.00	10.0	SSW	66.4	67.8	67.8	30.019	0.00	0.00	0.000	0.058	90.1	35	58.8	90.0	1405	1	100.0	60
04/15/18	3:00 a	66.2	66.6	66.2	93	64.1	0.0	SW	0.00	13.0	S	66.2	67.6	67.6	30.016	0.00	0.00	0.000	0.050	89.2	35	58.0	88.6	1404	1	100.0	60
04/15/18	4:00 a	65.1	66.2	65.1	94	63.3	0.0	---	0.00	0.0	---	65.1	66.3	66.3	30.024	0.00	0.00	0.000	0.004	89.6	34	57.5	89.0	1405	1	100.0	60
04/15/18	5:00 a	64.2	65.1	64.2	95	62.7	0.0	---	0.00	0.0	---	64.2	65.2	65.2	30.031	0.00	0.00	0.033	0.000	88.3	35	57.2	87.3	1405	1	100.0	60
04/15/18	6:00 a	64.5	64.5	64.2	96	63.3	0.0	---	0.00	0.0	---	64.5	65.6	65.6	30.038	0.00	0.00	0.021	0.000	87.4	35	56.4	86.4	1405	1	100.0	60
04/15/18	7:00 a	64.7	64.7	64.5	96	63.5	0.0	---	0.00	0.0	---	64.7	65.9	65.9	30.044	0.00	0.00	0.013	0.000	86.7	35	55.8	85.9	1405	1	100.0	60
04/15/18	8:00 a	66.6	66.6	64.7	94	64.8	0.0	---	0.00	0.0	---	66.6	68.1	68.1	30.041	0.00	0.00	0.000	0.067	87.3	35	56.3	86.4	1405	1	100.0	60
04/15/18	9:00 a	70.3	70.3	66.6	90	67.2	0.0	ESE	0.00	7.0	SSE	70.3	72.4	72.4	30.038	0.00	0.00	0.000	0.221	88.6	35	57.4	87.7	1405	1	100.0	60
04/15/18	10:00 a	76.0	76.0	70.2	83	70.5	0.0	SE	0.00	10.0	SE	76.0	79.1	79.1	30.020	0.00	0.00	0.000	0.458	89.5	36	59.0	89.4	1405	1	100.0	60
04/15/18	11:00 a	79.9	79.9	76.0	74	70.9	0.0	ESE	0.00	13.0	ESE	79.9	83.3	83.3	30.015	0.00	0.00	0.000	0.621	91.6	36	60.9	92.4	1405	1	100.0	60
04/15/18	12:00 p	76.6	80.2	76.6	81	70.3	0.0	S	0.00	21.0	S	76.6	79.7	79.7	30.008	0.02	0.11	0.000	0.483	92.0	36	61.2	93.0	1405	1	100.0	60
04/15/18	1:00 p	72.4	76.6	72.4	92	69.9	0.0	SSE	0.00	11.0	SSE	72.4	74.9	74.9	29.994	0.15	0.72	0.000	0.308	91.1	37	61.2	92.0	1405	1	100.0	60
04/15/18	2:00 p	73.4	73.4	72.0	92	70.9	0.0	ESE	0.00	4.0	ESE	73.4	76.0	76.0	29.950	0.01	0.17	0.000	0.350	91.7	36	61.0	92.5	1405	1	100.0	60
04/15/18	3:00 p	75.5	75.5	73.4	88	71.7	0.0	SSE	0.00	20.0	ESE	75.5	78.8	78.8	29.928	0.00	0.00	0.000	0.438	91.3	37	61.4	92.3	1405	1	100.0	60
04/15/18	4:00 p	75.2	76.4	75.1	89	71.7	0.0	S	0.00	17.0	S	75.2	78.5	78.5	29.895	0.00	0.00	0.000	0.425	91.5	38	62.3	93.0	1405	1	100.0	60
04/15/18	5:00 p	75.2	75.7	75.1	83	69.7	0.0	S	0.00	11.0	SW	75.2	78.1	78.1	29.867	0.00	0.00	0.000	0.425	91.5	39	63.1	93.3	1405	1	100.0	60
04/15/18	6:00 p	75.6	75.8	75.1	86	71.1	0.0	SE	0.00	15.0	SSE	75.6	78.8	78.8	29.841	0.00	0.00	0.000	0.442	91.7	39	63.2	93.7	1404	1	100.0	60
04/15/18	7:00 p	74.9	75.6	74.9	86	70.4	0.0	SSE	0.00	22.0	SSE	74.9	77.9	77.9	29.830	0.00	0.00	0.000	0.413	91.4	39	63.0	93.2	1405	1	100.0	60
04/15/18	8:00 p	73.8	74.9	73.8	88	70.0	0.0	SE	0.00	16.0	SE	73.8	76.1	76.1	29.829	0.00	0.00	0.000	0.367	91.0	40	63.3	92.9	1406	1	100.0	60
04/15/18	9:00 p	73.0	73.8	73.0	89	69.6	0.0	SSE	0.00	16.0	SSE	73.0	75.4	75.4	29.826	0.00	0.00	0.000	0.333	90.4	40	62.8	91.9	1404	1	100.0	60
04/15/18	10:00 p	72.6	73.0	72.6	90	69.5	0.0	SE	0.00	20.0	SSE	72.6	75.0	75.0	29.805	0.00	0.00	0.000	0.317	89.9	40	62.3	91.1	1405	1	100.0	60
04/15/18	11:00 p	71.8	72.6	71.8	92	69.3	0.0	SSE	0.00	18.0	SE	71.8	74.2	74.2	29.778	0.00	0.00	0.000	0.283	89.4	41	62.6	90.9	1405	1	100.0	60
04/16/18	12:00 a	71.5	71.8	71.4	92	69.1	0.0	SE	0.00	22.0	ESE	71.5	73.9	73.9	29.741	0.00	0.00	0.000	0.271	89.3	41	62.5	90.8	1405	1	100.0	60

MONDAY			Temp	Hi	Low	Out	Dew	Wind	Wind	Wind	Hi	Hi	Wind	Heat	THW			Rain	Heat	Cool	In 	In	In 	In 	Wind	Wind	ISS 	Arc.
Date		Time	Out	Temp	Temp	Hum	Pt.	Speed	Dir	Run	Speed	Dir	Chill	Index	Index	Bar  	Rain	Rate	D-D 	D-D 	Temp	Hum	Dew	Heat	Samp	Tx 	Recept	Int.
04/16/18	1:00 a	71.6	71.7	71.5	91	68.8	0.0	SE	0.00	21.0	ESE	71.6	73.9	73.9	29.693	0.00	0.00	0.000	0.275	88.7	42	62.7	90.2	1402	1	100.0	60
04/16/18	2:00 a	71.6	71.7	71.5	90	68.5	4.0	SE	4.00	26.0	SSE	71.6	73.8	73.8	29.634	0.00	0.00	0.000	0.275	88.3	42	62.3	89.3	1405	1	100.0	60
04/16/18	3:00 a	69.9	71.6	69.9	96	68.7	4.0	SE	4.00	31.0	S	69.9	72.6	72.6	29.590	0.12	1.31	0.000	0.204	88.0	43	62.7	89.1	1405	1	100.0	60
04/16/18	4:00 a	69.0	69.9	69.0	98	68.4	4.0	SSE	4.00	26.0	SSE	69.0	71.7	71.7	29.542	0.38	1.94	0.000	0.167	87.5	43	62.2	88.6	1405	1	100.0	60
04/16/18	5:00 a	63.0	69.0	63.0	96	61.8	0.0	S	0.00	16.0	S	63.0	63.8	63.8	29.539	0.52	12.80	0.083	0.000	86.9	43	61.7	88.0	1405	1	100.0	60
04/16/18	6:00 a	63.2	63.2	62.4	99	62.9	0.0	S	0.00	12.0	S	63.2	64.2	64.2	29.512	0.01	0.05	0.075	0.000	86.2	42	60.4	86.8	1405	1	100.0	60
04/16/18	7:00 a	63.2	63.7	63.2	97	62.3	0.0	SSW	0.00	13.0	SW	63.2	64.1	64.1	29.517	0.00	0.00	0.075	0.000	86.5	41	60.0	87.0	1404	1	100.0	60
04/16/18	8:00 a	57.9	63.2	57.9	88	54.4	4.0	SSW	4.00	26.0	W	57.9	57.9	57.9	29.559	0.00	0.00	0.296	0.000	86.3	40	59.1	86.6	1405	1	100.0	60
04/16/18	9:00 a	57.4	57.9	56.9	78	50.6	4.0	SSW	4.00	26.0	SSW	57.4	57.0	57.0	29.559	0.00	0.00	0.317	0.000	86.4	38	57.8	86.3	1405	1	100.0	60
04/16/18	10:00 a	57.8	58.4	57.5	75	49.9	4.0	SSW	4.00	28.0	SSW	57.8	57.3	57.3	29.583	0.00	0.00	0.300	0.000	86.7	37	57.3	86.4	1405	1	100.0	60
04/16/18	11:00 a	57.6	57.8	57.1	74	49.4	4.0	SSW	4.00	30.0	SW	57.6	57.0	57.0	29.599	0.00	0.00	0.308	0.000	85.5	38	57.0	85.3	1405	1	100.0	60
04/16/18	12:00 p	59.0	59.0	57.6	74	50.7	0.0	SSW	0.00	21.0	S	59.0	58.5	58.5	29.607	0.00	0.00	0.250	0.000	85.0	38	56.5	84.7	1405	1	100.0	60
04/16/18	1:00 p	60.6	60.6	59.0	71	51.1	0.0	SSW	0.00	27.0	S	60.6	60.1	60.1	29.602	0.00	0.00	0.183	0.000	85.1	38	56.6	84.8	1405	1	100.0	60
04/16/18	2:00 p	64.5	64.5	60.6	64	52.0	4.0	SW	4.00	27.0	SSE	64.5	64.0	64.0	29.592	0.00	0.00	0.021	0.000	86.2	37	56.9	85.9	1405	1	100.0	60
04/16/18	3:00 p	65.5	66.2	64.5	59	50.8	4.0	SSW	4.00	28.0	SW	65.5	64.7	64.7	29.594	0.00	0.00	0.000	0.021	87.3	37	57.8	86.9	1405	1	100.0	60
04/16/18	4:00 p	65.3	66.6	65.3	58	50.1	4.0	SSW	4.00	27.0	SSW	65.3	64.4	64.4	29.590	0.00	0.00	0.000	0.013	88.2	37	58.6	87.7	1405	1	100.0	60
04/16/18	5:00 p	64.5	65.3	64.2	55	48.0	0.0	W	0.00	17.0	W	64.5	63.3	63.3	29.598	0.00	0.00	0.021	0.000	88.7	36	58.3	88.2	1405	1	100.0	60
04/16/18	6:00 p	62.6	64.5	62.6	55	46.2	0.0	W	0.00	17.0	SW	62.6	61.2	61.2	29.618	0.00	0.00	0.100	0.000	87.6	37	58.1	87.1	1405	1	100.0	60
04/16/18	7:00 p	60.9	62.6	60.8	54	44.1	0.0	W	0.00	18.0	W	60.9	59.2	59.2	29.640	0.00	0.00	0.171	0.000	87.0	36	56.8	86.4	1405	1	100.0	60
04/16/18	8:00 p	59.4	60.9	59.4	55	43.2	0.0	WNW	0.00	12.0	WNW	59.4	57.8	57.8	29.654	0.00	0.00	0.233	0.000	86.2	36	56.1	85.7	1405	1	100.0	60
04/16/18	9:00 p	58.4	59.5	58.4	55	42.3	0.0	W	0.00	13.0	W	58.4	56.8	56.8	29.679	0.00	0.00	0.275	0.000	85.3	36	55.3	84.7	1405	1	100.0	60
04/16/18	10:00 p	57.3	58.4	57.3	55	41.3	0.0	WSW	0.00	16.0	WNW	57.3	55.7	55.7	29.697	0.00	0.00	0.321	0.000	84.4	35	53.8	83.7	1404	1	100.0	60
04/16/18	11:00 p	56.1	57.3	56.1	55	40.1	0.0	W	0.00	17.0	NW	56.1	54.5	54.5	29.713	0.00	0.00	0.371	0.000	83.7	35	53.1	82.8	1405	1	100.0	60
04/17/18	12:00 a	54.7	56.1	54.7	56	39.3	0.0	WNW	0.00	21.0	WNW	54.7	53.3	53.3	29.730	0.00	0.00	0.429	0.000	83.7	34	52.3	82.7	1405	1	100.0	60

TUESDAY 		Temp	Hi	Low	Out	Dew	Wind	Wind	Wind	Hi	Hi	Wind	Heat	THW			Rain	Heat	Cool	In 	In	In 	In 	Wind	Wind	ISS 	Arc.
Date		Time	Out	Temp	Temp	Hum	Pt.	Speed	Dir	Run	Speed	Dir	Chill	Index	Index	Bar  	Rain	Rate	D-D 	D-D 	Temp	Hum	Dew	Heat	Samp	Tx 	Recept	Int.
04/17/18	1:00 a	52.0	54.7	52.0	60	38.5	4.0	WNW	4.00	21.0	W	51.2	51.0	50.2	29.754	0.00	0.00	0.542	0.000	82.6	34	51.4	81.2	1404	1	100.0	60
04/17/18	2:00 a	48.9	52.0	48.8	68	38.8	4.0	W	4.00	23.0	W	47.6	48.4	47.1	29.769	0.00	0.00	0.671	0.000	82.1	33	50.1	80.6	1405	1	100.0	60
04/17/18	3:00 a	46.1	48.9	46.1	75	38.6	0.0	WNW	0.00	21.0	WNW	46.1	45.7	45.7	29.786	0.01	0.00	0.788	0.000	81.4	33	49.5	79.8	1405	1	100.0	60
04/17/18	4:00 a	45.5	46.1	45.5	64	34.0	0.0	WSW	0.00	13.0	WSW	45.5	44.8	44.8	29.790	0.00	0.00	0.813	0.000	80.7	33	48.9	79.0	1405	1	100.0	60
04/17/18	5:00 a	43.1	45.5	43.1	61	30.6	4.0	W	4.00	25.0	SW	40.9	42.3	40.1	29.798	0.00	0.00	0.913	0.000	80.3	32	47.7	78.5	1405	1	100.0	60
04/17/18	6:00 a	41.4	43.1	41.4	61	28.9	0.0	WSW	0.00	17.0	WSW	41.4	40.6	40.6	29.828	0.00	0.00	0.983	0.000	79.8	32	47.3	78.0	1405	1	100.0	60
04/17/18	7:00 a	40.4	41.4	40.4	64	29.2	0.0	W	0.00	14.0	W	40.4	39.7	39.7	29.846	0.00	0.00	1.025	0.000	80.6	31	47.2	78.7	1404	1	100.0	60
04/17/18	8:00 a	41.6	41.6	40.4	62	29.5	0.0	WSW	0.00	19.0	WNW	41.6	40.8	40.8	29.879	0.00	0.00	0.975	0.000	80.9	30	46.6	78.9	1405	1	100.0	60
04/17/18	9:00 a	43.9	43.9	41.6	57	29.6	0.0	WNW	0.00	23.0	WNW	43.9	43.0	43.0	29.886	0.00	0.00	0.879	0.000	82.0	30	47.5	80.1	1404	1	100.0	60
04/17/18	10:00 a	46.6	46.6	43.9	53	30.4	4.0	WSW	4.00	23.0	WNW	44.9	45.5	43.8	29.889	0.00	0.00	0.767	0.000	77.9	32	45.7	76.5	1405	1	100.0	60
04/17/18	11:00 a	48.6	48.6	46.5	51	31.3	4.0	W	4.00	22.0	WNW	47.3	47.4	46.1	29.873	0.00	0.00	0.683	0.000	78.1	33	46.6	76.7	1405	1	100.0	60
04/17/18	12:00 p	51.3	51.3	48.6	53	34.7	4.0	WSW	4.00	24.0	WSW	50.4	50.1	49.2	29.851	0.00	0.00	0.571	0.000	78.9	33	47.3	77.5	1405	1	100.0	60
04/17/18	1:00 p	52.2	52.3	51.4	48	33.1	5.0	W	5.00	24.0	WNW	50.8	50.6	49.2	29.824	0.00	0.00	0.533	0.000	78.8	33	47.3	77.4	1405	1	100.0	60
04/17/18	2:00 p	53.5	53.7	52.1	49	34.8	4.0	W	4.00	20.0	SW	52.9	51.8	51.2	29.814	0.00	0.00	0.479	0.000	79.6	33	48.0	78.0	1405	1	100.0	60
04/17/18	3:00 p	54.2	54.2	53.4	50	35.9	4.0	W	4.00	28.0	W	53.7	52.5	52.0	29.797	0.00	0.00	0.450	0.000	79.4	34	48.6	78.0	1405	1	100.0	60
04/17/18	4:00 p	54.8	55.0	54.2	50	36.5	4.0	W	4.00	22.0	WSW	54.4	53.0	52.6	29.777	0.00	0.00	0.425	0.000	81.1	33	49.3	79.4	1405	1	100.0	60
04/17/18	5:00 p	56.4	56.4	54.8	46	35.9	0.0	W	0.00	24.0	W	56.4	54.3	54.3	29.756	0.00	0.00	0.358	0.000	81.7	33	49.8	80.1	1405	1	100.0	60
04/17/18	6:00 p	55.6	56.8	55.6	45	34.6	0.0	W	0.00	20.0	W	55.6	53.4	53.4	29.764	0.00	0.00	0.392	0.000	81.9	33	50.0	80.3	1405	1	100.0	60
04/17/18	7:00 p	56.1	56.6	55.5	47	36.1	0.0	W	0.00	13.0	WSW	56.1	54.0	54.0	29.777	0.00	0.00	0.371	0.000	82.1	32	49.3	80.4	1405	1	100.0	60
04/17/18	8:00 p	53.2	56.1	53.2	53	36.5	0.0	---	0.00	0.0	---	53.2	51.7	51.7	29.788	0.00	0.00	0.492	0.000	81.6	32	48.9	79.9	1404	1	100.0	60
04/17/18	9:00 p	49.9	53.1	49.9	63	37.8	0.0	---	0.00	0.0	---	49.9	49.2	49.2	29.801	0.00	0.00	0.629	0.000	80.3	32	47.7	78.5	1405	1	100.0	60
04/17/18	10:00 p	47.7	49.9	47.7	70	38.4	0.0	---	0.00	0.0	---	47.7	47.2	47.2	29.822	0.00	0.00	0.721	0.000	79.0	33	47.4	77.6	1405	1	100.0	60
04/17/18	11:00 p	47.7	47.7	47.0	66	36.9	0.0	---	0.00	0.0	---	47.7	47.0	47.0	29.839	0.00	0.00	0.721	0.000	78.2	33	46.7	76.8	1405	1	100.0	60
04/18/18	12:00 a	48.7	48.7	47.7	71	39.7	0.0	NNE	0.00	17.0	NNE	48.7	48.3	48.3	29.843	0.00	0.00	0.679	0.000	77.7	34	47.1	76.4	1405	1	100.0	60

WEDNESDAY 		Temp	Hi	Low	Out	Dew	Wind	Wind	Wind	Hi	Hi	Wind	Heat	THW			Rain	Heat	Cool	In 	In	In 	In 	Wind	Wind	ISS 	Arc.
Date		Time	Out	Temp	Temp	Hum	Pt.	Speed	Dir	Run	Speed	Dir	Chill	Index	Index	Bar  	Rain	Rate	D-D 	D-D 	Temp	Hum	Dew	Heat	Samp	Tx 	Recept	Int.
04/18/18	1:00 a	48.4	48.7	48.4	69	38.7	0.0	NE	0.00	11.0	NE	48.4	47.9	47.9	29.851	0.00	0.00	0.692	0.000	76.6	34	46.1	75.5	1404	1	100.0	60
04/18/18	2:00 a	47.0	48.4	47.0	73	38.8	0.0	E	0.00	4.0	E	47.0	46.6	46.6	29.851	0.00	0.00	0.750	0.000	76.1	34	45.7	74.9	1405	1	100.0	60
04/18/18	3:00 a	45.9	47.0	45.7	69	36.3	0.0	---	0.00	0.0	---	45.9	45.4	45.4	29.855	0.00	0.00	0.796	0.000	75.8	34	45.4	74.5	1405	1	100.0	60
04/18/18	4:00 a	46.3	46.4	45.9	69	36.7	0.0	---	0.00	0.0	---	46.3	45.8	45.8	29.878	0.00	0.00	0.779	0.000	75.5	34	45.2	74.2	1405	1	100.0	60
04/18/18	5:00 a	48.1	48.1	46.3	67	37.7	0.0	NE	0.00	4.0	NNE	48.1	47.5	47.5	29.879	0.00	0.00	0.704	0.000	75.3	34	45.0	74.0	1404	1	100.0	60
04/18/18	6:00 a	47.7	48.1	47.6	69	38.0	0.0	ENE	0.00	15.0	ENE	47.7	47.2	47.2	29.891	0.00	0.00	0.721	0.000	75.3	34	45.0	74.0	1406	1	100.0	60
04/18/18	7:00 a	47.2	47.6	47.2	69	37.5	0.0	ENE	0.00	15.0	NE	47.2	46.7	46.7	29.916	0.00	0.00	0.742	0.000	81.7	30	47.2	79.8	1404	1	100.0	60
04/18/18	8:00 a	47.8	47.8	47.1	68	37.7	0.0	NNE	0.00	4.0	ENE	47.8	47.2	47.2	29.931	0.00	0.00	0.717	0.000	84.1	28	47.5	82.1	1405	1	100.0	60
04/18/18	9:00 a	49.7	49.7	47.8	67	39.2	0.0	ENE	0.00	7.0	ENE	49.7	49.2	49.2	29.934	0.00	0.00	0.637	0.000	85.1	28	48.3	83.0	1405	1	100.0	60
04/18/18	10:00 a	52.9	52.9	49.7	64	41.0	0.0	---	0.00	0.0	---	52.9	52.0	52.0	29.936	0.00	0.00	0.504	0.000	85.3	29	49.4	83.4	1405	1	100.0	60
04/18/18	11:00 a	55.6	55.6	52.9	61	42.4	0.0	SE	0.00	4.0	SE	55.6	54.4	54.4	29.919	0.00	0.00	0.392	0.000	84.1	30	49.3	82.4	1405	1	100.0	60
04/18/18	12:00 p	59.2	59.2	55.6	59	44.9	0.0	ENE	0.00	4.0	ENE	59.2	57.8	57.8	29.893	0.00	0.00	0.242	0.000	84.7	30	49.8	82.9	1405	1	100.0	60
04/18/18	1:00 p	63.1	63.1	59.2	59	48.5	0.0	SE	0.00	4.0	ENE	63.1	62.0	62.0	29.870	0.00	0.00	0.079	0.000	86.0	30	51.0	84.3	1405	1	100.0	60
04/18/18	2:00 p	67.9	67.9	63.1	57	52.1	0.0	SSW	0.00	4.0	SW	67.9	67.3	67.3	29.853	0.00	0.00	0.000	0.121	87.1	30	51.9	85.2	1405	1	100.0	60
04/18/18	3:00 p	66.4	68.6	65.9	55	49.7	0.0	NNW	0.00	4.0	NNW	66.4	65.4	65.4	29.822	0.00	0.00	0.000	0.058	88.6	30	53.2	86.5	1405	1	100.0	60
04/18/18	4:00 p	72.1	72.1	66.4	53	54.0	0.0	NE	0.00	5.0	ESE	72.1	71.5	71.5	29.784	0.00	0.00	0.000	0.296	90.4	31	55.6	89.7	1405	1	100.0	60
04/18/18	5:00 p	70.7	72.5	70.7	57	54.7	0.0	SSE	0.00	12.0	SE	70.7	69.8	69.8	29.764	0.00	0.00	0.000	0.237	92.0	31	57.0	91.6	1405	1	100.0	60
04/18/18	6:00 p	67.5	70.7	67.5	63	54.5	0.0	SE	0.00	6.0	SE	67.5	67.4	67.4	29.752	0.00	0.00	0.000	0.104	92.9	31	57.8	92.8	1405	1	100.0	60
04/18/18	7:00 p	65.2	67.5	65.2	66	53.6	0.0	SE	0.00	11.0	ESE	65.2	65.0	65.0	29.737	0.00	0.00	0.000	0.008	92.3	31	57.3	92.0	1404	1	100.0	60
04/18/18	8:00 p	60.9	65.2	60.9	72	51.8	0.0	SE	0.00	6.0	SSE	60.9	60.4	60.4	29.721	0.00	0.00	0.171	0.000	91.1	31	56.3	90.5	1405	1	100.0	60
04/18/18	9:00 p	57.5	60.9	57.5	78	50.7	0.0	---	0.00	0.0	---	57.5	57.2	57.2	29.720	0.00	0.00	0.313	0.000	89.7	31	55.0	88.6	1405	1	100.0	60
04/18/18	10:00 p	55.5	57.5	55.5	83	50.4	0.0	---	0.00	0.0	---	55.5	55.3	55.3	29.719	0.00	0.00	0.396	0.000	88.2	31	53.7	86.2	1405	1	100.0	60
04/18/18	11:00 p	54.3	55.5	54.3	87	50.5	0.0	---	0.00	0.0	---	54.3	54.3	54.3	29.699	0.00	0.00	0.446	0.000	86.8	31	52.5	85.2	1405	1	100.0	60
04/19/18	12:00 a	53.3	54.3	53.2	89	50.1	0.0	---	0.00	0.0	---	53.3	53.4	53.4	29.666	0.00	0.00	0.488	0.000	84.6	32	51.5	83.2	1405	1	100.0	60

THURSDAY 		Temp	Hi	Low	Out	Dew	Wind	Wind	Wind	Hi	Hi	Wind	Heat	THW			Rain	Heat	Cool	In 	In	In 	In 	Wind	Wind	ISS 	Arc.
Date		Time	Out	Temp	Temp	Hum	Pt.	Speed	Dir	Run	Speed	Dir	Chill	Index	Index	Bar  	Rain	Rate	D-D 	D-D 	Temp	Hum	Dew	Heat	Samp	Tx 	Recept	Int.
04/19/18	1:00 a	54.0	54.0	53.0	94	52.3	0.0	---	0.00	0.0	---	54.0	54.2	54.2	29.640	0.00	0.00	0.458	0.000	79.9	35	49.8	78.4	1404	1	100.0	60
04/19/18	2:00 a	55.4	55.4	54.0	92	53.1	0.0	---	0.00	0.0	---	55.4	55.5	55.5	29.611	0.00	0.00	0.400	0.000	78.7	36	49.5	77.5	1405	1	100.0	60
04/19/18	3:00 a	59.1	59.1	55.4	82	53.6	0.0	---	0.00	0.0	---	59.1	59.0	59.0	29.592	0.00	0.00	0.246	0.000	78.0	36	48.9	76.8	1405	1	100.0	60
04/19/18	4:00 a	59.6	59.7	59.1	80	53.4	0.0	SE	0.00	4.0	SE	59.6	59.5	59.5	29.598	0.00	0.00	0.225	0.000	78.4	36	49.2	77.2	1405	1	100.0	60
04/19/18	5:00 a	60.1	60.1	59.5	76	52.5	0.0	SW	0.00	5.0	SW	60.1	59.8	59.8	29.600	0.00	0.00	0.204	0.000	77.4	36	48.3	76.3	1405	1	100.0	60
04/19/18	6:00 a	62.4	62.4	60.1	71	52.9	0.0	SSW	0.00	17.0	SW	62.4	62.0	62.0	29.613	0.00	0.00	0.108	0.000	77.2	36	48.2	76.2	1405	1	100.0	60
04/19/18	7:00 a	63.6	63.6	62.4	71	54.0	0.0	SSW	0.00	20.0	SW	63.6	63.4	63.4	29.630	0.00	0.00	0.058	0.000	80.8	33	49.0	79.1	1404	1	100.0	60
04/19/18	8:00 a	64.0	65.2	63.6	64	51.6	0.0	SSW	0.00	18.0	N	64.0	63.4	63.4	29.693	0.00	0.00	0.042	0.000	81.9	33	50.0	80.3	1405	1	100.0	60
04/19/18	9:00 a	62.8	64.0	62.8	71	53.3	0.0	NE	0.00	7.0	NW	62.8	62.5	62.5	29.707	0.00	0.00	0.092	0.000	83.3	31	49.5	81.6	1405	1	100.0	60
04/19/18	10:00 a	62.6	62.8	62.3	71	53.1	0.0	ENE	0.00	7.0	NNW	62.6	62.3	62.3	29.727	0.00	0.00	0.100	0.000	84.3	31	50.4	82.8	1405	1	100.0	60
04/19/18	11:00 a	62.6	62.7	61.7	71	53.1	0.0	NW	0.00	7.0	ESE	62.6	62.3	62.3	29.741	0.00	0.00	0.100	0.000	84.2	33	52.0	83.1	1405	1	100.0	60
04/19/18	12:00 p	65.4	65.4	62.7	65	53.3	0.0	NW	0.00	5.0	NW	65.4	65.1	65.1	29.743	0.00	0.00	0.000	0.017	85.1	33	52.8	83.9	1405	1	100.0	60
04/19/18	1:00 p	68.2	68.3	65.4	60	53.8	0.0	SW	0.00	11.0	SW	68.2	67.8	67.8	29.746	0.00	0.00	0.000	0.133	85.9	33	53.5	84.8	1405	1	100.0	60
04/19/18	2:00 p	72.4	72.4	68.2	55	55.3	0.0	W	0.00	21.0	WSW	72.4	72.1	72.1	29.747	0.00	0.00	0.000	0.308	87.3	33	54.7	86.0	1405	1	100.0	60
04/19/18	3:00 p	70.4	74.6	70.4	54	53.0	4.0	W	4.00	22.0	SW	70.4	69.1	69.1	29.766	0.00	0.00	0.000	0.225	88.4	33	55.6	86.9	1405	1	100.0	60
04/19/18	4:00 p	66.5	70.4	66.5	58	51.3	4.0	NW	4.00	31.0	WNW	66.5	65.7	65.7	29.812	0.00	0.00	0.000	0.063	88.2	33	55.5	86.6	1405	1	100.0	60
04/19/18	5:00 p	57.9	66.4	57.8	69	47.8	0.0	NE	0.00	20.0	NNE	57.9	57.1	57.1	29.861	0.00	0.00	0.296	0.000	87.5	33	54.9	86.1	1405	1	100.0	60
04/19/18	6:00 p	59.1	59.1	57.9	67	48.1	0.0	NNE	0.00	11.0	ENE	59.1	58.2	58.2	29.893	0.00	0.00	0.246	0.000	87.6	32	54.1	85.9	1405	1	100.0	60
04/19/18	7:00 p	61.1	61.1	59.1	44	39.0	4.0	WNW	4.00	28.0	WNW	61.1	58.7	58.7	29.926	0.00	0.00	0.163	0.000	88.0	31	53.6	85.9	1405	1	100.0	60
04/19/18	8:00 p	58.8	61.1	58.8	45	37.5	4.0	NW	4.00	22.0	WNW	58.8	56.5	56.5	29.980	0.00	0.00	0.258	0.000	86.6	31	52.4	85.0	1404	1	100.0	60
04/19/18	9:00 p	56.6	58.8	56.6	44	34.9	5.0	NW	5.00	29.0	WNW	56.0	54.3	53.7	30.045	0.00	0.00	0.350	0.000	85.2	31	51.1	83.6	1405	1	100.0	60
04/19/18	10:00 p	53.8	56.6	53.8	52	36.6	4.0	NW	4.00	25.0	NNW	53.3	52.2	51.7	30.096	0.00	0.00	0.467	0.000	83.9	31	50.0	82.4	1405	1	100.0	60
04/19/18	11:00 p	49.1	53.7	49.1	52	32.2	6.0	NNW	6.00	30.0	NNW	46.6	48.0	45.5	30.133	0.00	0.00	0.663	0.000	82.8	30	48.2	80.8	1405	1	100.0	60
04/20/18	12:00 a	47.3	49.1	47.3	53	31.0	4.0	NNW	4.00	21.0	NNW	45.8	46.2	44.7	30.152	0.00	0.00	0.738	0.000	82.7	29	47.2	80.6	1404	1	100.0	60

FRIDAY	 		Temp	Hi	Low	Out	Dew	Wind	Wind	Wind	Hi	Hi	Wind	Heat	THW			Rain	Heat	Cool	In 	In	In 	In 	Wind	Wind	ISS 	Arc.
Date		Time	Out	Temp	Temp	Hum	Pt.	Speed	Dir	Run	Speed	Dir	Chill	Index	Index	Bar  	Rain	Rate	D-D 	D-D 	Temp	Hum	Dew	Heat	Samp	Tx 	Recept	Int.
04/20/18	1:00 a	46.7	47.3	46.7	52	30.0	0.0	NW	0.00	22.0	WNW	46.7	45.6	45.6	30.175	0.00	0.00	0.762	0.000	82.1	29	46.7	80.1	1404	1	100.0	60
04/20/18	2:00 a	45.9	46.7	45.9	54	30.2	0.0	NNW	0.00	7.0	NNW	45.9	44.9	44.9	30.179	0.00	0.00	0.796	0.000	81.4	29	46.1	79.3	1405	1	100.0	60
04/20/18	3:00 a	45.1	45.9	45.0	58	31.2	0.0	---	0.00	0.0	---	45.1	44.2	44.2	30.175	0.00	0.00	0.829	0.000	80.9	29	45.7	78.8	1405	1	100.0	60
04/20/18	4:00 a	44.0	45.1	44.0	63	32.2	0.0	---	0.00	0.0	---	44.0	43.3	43.3	30.189	0.00	0.00	0.875	0.000	80.5	28	44.4	78.3	1405	1	100.0	60
04/20/18	5:00 a	40.8	44.0	40.8	72	32.5	0.0	---	0.00	0.0	---	40.8	40.3	40.3	30.200	0.00	0.00	1.008	0.000	80.2	28	44.1	78.0	1405	1	100.0	60
04/20/18	6:00 a	38.8	40.7	38.8	77	32.2	0.0	---	0.00	0.0	---	38.8	38.4	38.4	30.215	0.00	0.00	1.092	0.000	80.1	28	44.0	77.9	1404	1	100.0	60
04/20/18	7:00 a	39.0	39.0	38.3	79	33.0	0.0	---	0.00	0.0	---	39.0	38.7	38.7	30.248	0.00	0.00	1.083	0.000	80.8	27	43.7	78.5	1406	1	100.0	60
04/20/18	8:00 a	44.7	44.7	38.9	55	29.5	4.0	NW	4.00	22.0	NW	42.7	43.7	41.7	30.272	0.00	0.00	0.846	0.000	76.4	30	42.7	75.0	1404	1	100.0	60
04/20/18	9:00 a	46.4	46.4	44.7	51	29.2	0.0	NW	0.00	19.0	NNW	46.4	45.3	45.3	30.282	0.00	0.00	0.775	0.000	76.3	30	42.6	74.9	1405	1	100.0	60
04/20/18	10:00 a	48.7	48.8	46.4	46	28.8	4.0	NW	4.00	23.0	NW	47.4	47.4	46.1	30.294	0.00	0.00	0.679	0.000	77.4	30	43.5	76.0	1405	1	100.0	60
04/20/18	11:00 a	49.6	49.8	48.4	49	31.2	4.0	NW	4.00	26.0	WNW	48.4	48.4	47.2	30.302	0.00	0.00	0.642	0.000	78.4	30	44.4	76.7	1405	1	100.0	60
04/20/18	12:00 p	51.4	51.4	49.6	43	29.6	4.0	NW	4.00	23.0	W	50.5	49.7	48.8	30.301	0.00	0.00	0.567	0.000	79.0	30	44.9	77.2	1405	1	100.0	60
04/20/18	1:00 p	53.3	53.3	51.3	40	29.6	4.0	WNW	4.00	22.0	NW	52.7	51.2	50.6	30.290	0.00	0.00	0.488	0.000	79.8	30	45.6	77.8	1405	1	100.0	60
04/20/18	2:00 p	55.2	55.2	53.3	41	31.9	4.0	NW	4.00	21.0	NW	54.8	52.9	52.5	30.280	0.00	0.00	0.408	0.000	81.0	30	46.6	79.0	1405	1	100.0	60
04/20/18	3:00 p	57.6	57.6	55.2	39	32.8	4.0	WNW	4.00	22.0	NW	57.6	55.0	55.0	30.265	0.00	0.00	0.308	0.000	81.3	30	46.9	79.3	1405	1	100.0	60
04/20/18	4:00 p	59.5	59.5	57.6	34	31.1	0.0	NNW	0.00	19.0	NNW	59.5	56.3	56.3	30.249	0.00	0.00	0.229	0.000	82.4	30	47.8	80.5	1405	1	100.0	60
04/20/18	5:00 p	60.3	60.3	59.3	35	32.5	0.0	NW	0.00	20.0	NW	60.3	57.2	57.2	30.248	0.00	0.00	0.196	0.000	83.6	30	48.9	81.8	1405	1	100.0	60
04/20/18	6:00 p	60.8	60.8	60.3	32	30.7	0.0	WNW	0.00	13.0	NNW	60.8	57.4	57.4	30.248	0.00	0.00	0.175	0.000	84.6	30	49.7	82.8	1405	1	100.0	60
04/20/18	7:00 p	60.4	60.9	60.4	36	33.3	0.0	WNW	0.00	7.0	N	60.4	57.3	57.3	30.258	0.00	0.00	0.192	0.000	85.1	29	49.3	83.1	1404	1	100.0	60
04/20/18	8:00 p	56.4	60.4	56.4	46	35.9	0.0	ENE	0.00	6.0	ENE	56.4	54.3	54.3	30.284	0.00	0.00	0.358	0.000	87.8	27	49.7	85.1	1406	1	100.0	60
04/20/18	9:00 p	52.5	56.5	52.5	52	35.4	0.0	---	0.00	0.0	---	52.5	51.1	51.1	30.317	0.00	0.00	0.521	0.000	86.1	27	48.2	83.9	1404	1	100.0	60
04/20/18	10:00 p	49.0	52.5	49.0	67	38.5	0.0	---	0.00	0.0	---	49.0	48.5	48.5	30.338	0.00	0.00	0.667	0.000	85.5	27	47.7	83.2	1405	1	100.0	60
04/20/18	11:00 p	46.9	49.0	46.9	72	38.3	0.0	---	0.00	0.0	---	46.9	46.5	46.5	30.351	0.00	0.00	0.754	0.000	85.3	26	46.5	82.9	1405	1	100.0	60
04/21/18	12:00 a	45.2	46.9	45.2	76	38.1	0.0	---	0.00	0.0	---	45.2	44.8	44.8	30.365	0.00	0.00	0.825	0.000	84.3	26	45.7	81.9	1405	1	100.0	60

SATURDAY		Temp	Hi	Low	Out	Dew	Wind	Wind	Wind	Hi	Hi	Wind	Heat	THW			Rain	Heat	Cool	In 	In	In 	In 	Wind	Wind	ISS 	Arc.
Date		Time	Out	Temp	Temp	Hum	Pt.	Speed	Dir	Run	Speed	Dir	Chill	Index	Index	Bar  	Rain	Rate	D-D 	D-D 	Temp	Hum	Dew	Heat	Samp	Tx 	Recept	Int.
04/21/18	1:00 a	43.4	45.2	43.4	80	37.6	0.0	---	0.00	0.0	---	43.4	43.1	43.1	30.364	0.00	0.00	0.900	0.000	82.6	27	45.2	80.3	1404	1	100.0	60
04/21/18	2:00 a	41.9	43.3	41.9	83	37.1	0.0	---	0.00	0.0	---	41.9	41.7	41.7	30.354	0.00	0.00	0.962	0.000	81.2	27	44.0	78.9	1405	1	100.0	60
04/21/18	3:00 a	40.7	41.9	40.7	85	36.5	0.0	---	0.00	0.0	---	40.7	40.5	40.5	30.361	0.00	0.00	1.012	0.000	80.1	27	43.1	77.8	1405	1	100.0	60
04/21/18	4:00 a	40.1	40.7	40.1	88	36.8	0.0	---	0.00	0.0	---	40.1	40.0	40.0	30.376	0.00	0.00	1.038	0.000	79.6	27	42.7	77.4	1405	1	100.0	60
04/21/18	5:00 a	39.4	40.1	39.4	89	36.4	0.0	---	0.00	0.0	---	39.4	39.3	39.3	30.394	0.00	0.00	1.067	0.000	79.1	27	42.2	77.0	1404	1	100.0	60
04/21/18	6:00 a	38.3	39.5	38.3	90	35.6	0.0	---	0.00	0.0	---	38.3	38.2	38.2	30.409	0.00	0.00	1.113	0.000	75.5	29	41.0	73.8	1405	1	100.0	60
04/21/18	7:00 a	38.2	38.3	38.0	92	36.1	0.0	---	0.00	0.0	---	38.2	38.1	38.1	30.423	0.00	0.00	1.117	0.000	75.1	30	41.5	73.4	1405	1	100.0	60
04/21/18	8:00 a	44.3	44.3	38.2	96	43.2	0.0	ENE	0.00	12.0	ENE	44.3	44.5	44.5	30.436	0.00	0.00	0.863	0.000	75.3	30	41.7	73.7	1405	1	100.0	60
04/21/18	9:00 a	50.4	50.4	44.3	75	42.8	0.0	NE	0.00	6.0	NE	50.4	50.2	50.2	30.446	0.00	0.00	0.608	0.000	76.3	30	42.6	74.9	1405	1	100.0	60
04/21/18	10:00 a	52.6	52.6	50.4	67	41.9	0.0	NE	0.00	7.0	NE	52.6	51.8	51.8	30.455	0.00	0.00	0.517	0.000	77.2	30	43.4	75.9	1405	1	100.0	60
04/21/18	11:00 a	54.5	54.5	52.6	62	41.7	0.0	NE	0.00	13.0	ENE	54.5	53.4	53.4	30.461	0.00	0.00	0.438	0.000	78.1	30	44.1	76.5	1405	1	100.0	60
04/21/18	12:00 p	56.0	56.2	54.5	58	41.4	0.0	ENE	0.00	11.0	ENE	56.0	54.6	54.6	30.445	0.00	0.00	0.375	0.000	79.7	30	45.5	77.8	1405	1	100.0	60
04/21/18	1:00 p	57.1	57.1	56.0	57	42.0	0.0	ENE	0.00	11.0	NE	57.1	55.6	55.6	30.423	0.00	0.00	0.329	0.000	80.4	30	46.1	78.4	1405	1	100.0	60
04/21/18	2:00 p	58.4	58.4	57.1	51	40.3	0.0	ENE	0.00	14.0	ENE	58.4	56.5	56.5	30.399	0.00	0.00	0.275	0.000	82.0	30	47.5	80.1	1405	1	100.0	60
04/21/18	3:00 p	59.0	59.2	58.3	43	36.5	0.0	ENE	0.00	16.0	ENE	59.0	56.5	56.5	30.374	0.00	0.00	0.250	0.000	82.7	31	49.0	80.9	1405	1	100.0	60
04/21/18	4:00 p	59.7	59.7	58.8	46	38.9	0.0	ENE	0.00	16.0	ENE	59.7	57.5	57.5	30.358	0.00	0.00	0.221	0.000	84.1	30	49.3	82.4	1405	1	100.0	60
04/21/18	5:00 p	60.4	60.8	59.7	48	40.6	0.0	NNE	0.00	14.0	NNE	60.4	58.3	58.3	30.351	0.00	0.00	0.192	0.000	85.4	30	50.4	83.6	1405	1	100.0	60
04/21/18	6:00 p	59.8	60.8	59.7	52	42.1	0.0	SE	0.00	6.0	SE	59.8	58.0	58.0	30.349	0.00	0.00	0.217	0.000	86.3	30	51.2	84.6	1404	1	100.0	60
04/21/18	7:00 p	56.5	59.8	56.5	55	40.5	0.0	SE	0.00	11.0	ESE	56.5	54.9	54.9	30.361	0.00	0.00	0.354	0.000	84.5	31	50.5	83.0	1405	1	100.0	60
04/21/18	8:00 p	52.8	56.5	52.8	58	38.4	0.0	SE	0.00	7.0	SE	52.8	51.6	51.6	30.367	0.00	0.00	0.508	0.000	82.5	32	49.7	80.8	1405	1	100.0	60
04/21/18	9:00 p	50.0	52.8	50.0	61	37.1	0.0	SE	0.00	4.0	SE	50.0	49.2	49.2	30.371	0.00	0.00	0.625	0.000	80.8	32	48.2	79.0	1405	1	100.0	60
04/21/18	10:00 p	48.7	50.0	48.7	70	39.4	0.0	---	0.00	0.0	---	48.7	48.3	48.3	30.381	0.00	0.00	0.679	0.000	80.1	31	46.7	78.2	1405	1	100.0	60
04/21/18	11:00 p	47.7	48.8	47.7	77	40.8	0.0	SSW	0.00	4.0	SSW	47.7	47.5	47.5	30.380	0.00	0.00	0.721	0.000	84.0	28	47.4	82.0	1405	1	100.0	60
04/22/18	12:00 a	46.6	47.8	46.6	78	40.1	0.0	---	0.00	0.0	---	46.6	46.3	46.3	30.386	0.00	0.00	0.767	0.000	83.2	27	45.7	80.9	1405	1	100.0	60

SUNDAY			Temp	Hi	Low	Out	Dew	Wind	Wind	Wind	Hi	Hi	Wind	Heat	THW			Rain	Heat	Cool	In 	In	In 	In 	Wind	Wind	ISS 	Arc.
Date		Time	Out	Temp	Temp	Hum	Pt.	Speed	Dir	Run	Speed	Dir	Chill	Index	Index	Bar  	Rain	Rate	D-D 	D-D 	Temp	Hum	Dew	Heat	Samp	Tx 	Recept	Int.
04/22/18	1:00 a	46.3	46.6	46.3	80	40.5	0.0	SSE	0.00	4.0	SSE	46.3	46.1	46.1	30.394	0.00	0.00	0.779	0.000	82.5	27	45.1	80.2	1404	1	100.0	60
04/22/18	2:00 a	45.7	46.3	45.7	81	40.2	0.0	SSE	0.00	4.0	SSE	45.7	45.5	45.5	30.381	0.00	0.00	0.804	0.000	81.5	27	44.3	79.2	1405	1	100.0	60
04/22/18	3:00 a	45.1	45.7	45.0	82	39.9	0.0	---	0.00	0.0	---	45.1	44.9	44.9	30.373	0.00	0.00	0.829	0.000	80.7	28	44.6	78.5	1405	1	100.0	60
04/22/18	4:00 a	44.0	45.0	44.0	85	39.8	0.0	---	0.00	0.0	---	44.0	43.9	43.9	30.381	0.00	0.00	0.875	0.000	80.3	27	43.3	78.0	1404	1	100.0	60
04/22/18	5:00 a	43.2	44.0	43.2	86	39.3	0.0	---	0.00	0.0	---	43.2	43.1	43.1	30.370	0.00	0.00	0.908	0.000	79.9	28	43.9	77.7	1405	1	100.0	60

			Temp	Hi	Low	Out	Dew	Wind	Wind	Wind	Hi	Hi	Wind	Heat	THW			Rain	Heat	Cool	In 	In	In 	In 	Wind	Wind	ISS 	Arc.
Date		Time	Out	Temp	Temp	Hum	Pt.	Speed	Dir	Run	Speed	Dir	Chill	Index	Index	Bar  	Rain	Rate	D-D 	D-D 	Temp	Hum	Dew	Heat	Samp	Tx 	Recept	Int.